Time,TemperatureF,DewpointF,PressureIn,WindDirection,WindDirectionDegrees,WindSpeedMPH,WindSpeedGustMPH,Humidity,HourlyPrecipIn,Conditions,Clouds,dailyrainin,SoftwareType,DateUTC
2013-02-08 00:00:00,50.9,12.4,28.76,South,180,6.7,6.7,21,0.00,,---,0.00,VWS V14.01,2013-02-08 05:00:00,
2013-02-08 00:01:00,51.1,12.5,28.76,South,180,6.3,7.6,21,0.00,,---,0.00,VWS V14.01,2013-02-08 05:01:00,
2013-02-08 00:02:00,50.4,30.9,29.00,SW,225,3.8,5.6,47,0.00,,,0.00,VWS V14.01,2013-02-08 05:02:00,
2013-02-08 00:03:00,50.2,30.8,29.00,South,180,2.0,3.8,47,0.00,,,0.00,VWS V14.01,2013-02-08 05:03:00,
2013-02-08 00:04:00,50.2,30.8,29.00,SSW,202,2.0,4.3,47,0.00,,,0.00,VWS V14.01,2013-02-08 05:04:00,
2013-02-08 00:05:00,50.2,30.8,29.00,South,180,4.9,4.9,47,0.00,,,0.00,VWS V14.01,2013-02-08 05:05:00,
2013-02-08 00:06:00,51.4,12.8,28.76,SE,135,3.6,3.6,21,0.00,,---,0.00,VWS V14.01,2013-02-08 05:06:00,
2013-02-08 00:07:00,50.0,30.6,29.00,South,180,1.1,3.1,47,0.00,,,0.00,VWS V14.01,2013-02-08 05:07:00,
2013-02-08 00:08:00,50.0,30.6,29.00,South,180,4.9,4.9,47,0.00,,,0.00,VWS V14.01,2013-02-08 05:08:00,
2013-02-08 00:09:00,50.0,30.6,29.00,South,180,1.1,4.9,47,0.00,,,0.00,VWS V14.01,2013-02-08 05:09:00,
2013-02-08 00:10:00,50.0,30.6,29.00,SSW,202,3.4,3.4,47,0.00,,,0.00,VWS V14.01,2013-02-08 05:10:00,
2013-02-08 00:11:00,51.4,12.8,28.76,SE,135,6.3,6.3,21,0.00,,---,0.00,VWS V14.01,2013-02-08 05:11:00,
2013-02-08 00:12:00,50.0,31.1,29.00,ESE,112,0.0,6.0,48,0.00,,,0.00,VWS V14.01,2013-02-08 05:12:00,
2013-02-08 00:13:00,50.0,31.1,29.00,SW,225,3.4,6.5,48,0.00,,,0.00,VWS V14.01,2013-02-08 05:13:00,
2013-02-08 00:14:00,49.8,30.9,29.00,South,180,0.0,3.8,48,0.00,,,0.00,VWS V14.01,2013-02-08 05:14:00,
2013-02-08 00:15:00,49.8,30.9,29.00,SSW,202,3.6,3.6,48,0.00,,,0.00,VWS V14.01,2013-02-08 05:15:00,
2013-02-08 00:16:00,51.4,12.8,28.76,South,180,5.8,6.3,21,0.00,,---,0.00,VWS V14.01,2013-02-08 05:16:00,
2013-02-08 00:17:00,49.8,31.4,29.00,SSE,158,6.5,6.5,49,0.00,,,0.00,VWS V14.01,2013-02-08 05:17:00,
2013-02-08 00:18:00,49.8,31.4,29.00,WSW,248,4.0,6.5,49,0.00,,,0.00,VWS V14.01,2013-02-08 05:18:00,
2013-02-08 00:19:00,49.8,31.4,29.00,South,180,1.6,4.0,49,0.00,,,0.00,VWS V14.01,2013-02-08 05:19:00,
2013-02-08 00:20:00,49.8,31.4,29.00,South,180,0.0,2.5,49,0.00,,,0.00,VWS V14.01,2013-02-08 05:20:00,
2013-02-08 00:21:00,51.3,12.7,28.76,SE,135,4.9,4.9,21,0.00,,---,0.00,VWS V14.01,2013-02-08 05:21:00,
2013-02-08 00:22:00,49.6,31.3,29.00,SSW,202,1.1,3.4,49,0.00,,,0.00,VWS V14.01,2013-02-08 05:22:00,
2013-02-08 00:23:00,49.6,31.3,29.00,SW,225,3.1,3.1,49,0.00,,,0.00,VWS V14.01,2013-02-08 05:23:00,
2013-02-08 00:24:00,49.6,31.8,29.00,South,180,4.3,7.4,50,0.00,,,0.00,VWS V14.01,2013-02-08 05:24:00,
2013-02-08 00:25:00,49.6,31.8,29.00,SW,225,3.4,6.5,50,0.00,,,0.00,VWS V14.01,2013-02-08 05:25:00,
2013-02-08 00:26:00,51.4,15.9,28.76,SE,135,4.9,4.9,24,0.00,,---,0.00,VWS V14.01,2013-02-08 05:26:00,
2013-02-08 00:27:00,49.6,31.8,29.00,SSW,202,1.1,4.3,50,0.00,,,0.00,VWS V14.01,2013-02-08 05:27:00,
2013-02-08 00:28:00,49.6,31.8,29.00,South,180,0.0,1.3,50,0.00,,,0.00,VWS V14.01,2013-02-08 05:28:00,
2013-02-08 00:29:00,49.5,31.6,29.00,South,180,2.2,2.9,50,0.00,,,0.00,VWS V14.01,2013-02-08 05:29:00,
2013-02-08 00:30:00,49.3,31.9,29.00,South,180,2.5,4.7,51,0.00,,,0.00,VWS V14.01,2013-02-08 05:30:00,
2013-02-08 00:31:00,51.4,15.9,28.73,SE,135,4.9,4.9,24,0.00,,---,0.00,VWS V14.01,2013-02-08 05:31:00,
2013-02-08 00:32:00,49.5,32.1,29.00,SSW,202,3.4,3.4,51,0.00,,,0.00,VWS V14.01,2013-02-08 05:32:00,
2013-02-08 00:33:00,49.3,31.9,29.00,SW,225,1.3,3.4,51,0.00,,,0.00,VWS V14.01,2013-02-08 05:33:00,
2013-02-08 00:34:00,49.5,32.6,29.00,SSW,202,3.8,5.4,52,0.00,,,0.00,VWS V14.01,2013-02-08 05:34:00,
2013-02-08 00:35:00,49.5,32.6,29.00,SSW,202,3.4,4.9,52,0.00,,,0.00,VWS V14.01,2013-02-08 05:35:00,
2013-02-08 00:36:00,51.4,15.9,28.73,SSE,158,5.4,5.4,24,0.00,,---,0.00,VWS V14.01,2013-02-08 05:36:00,
2013-02-08 00:37:00,49.5,32.6,29.00,SSW,202,2.7,3.8,52,0.00,,,0.00,VWS V14.01,2013-02-08 05:37:00,
2013-02-08 00:38:00,49.5,32.6,29.00,SE,135,2.9,2.9,52,0.00,,,0.00,VWS V14.01,2013-02-08 05:38:00,
2013-02-08 00:39:00,49.5,33.1,29.00,SSW,202,4.3,4.3,53,0.00,,,0.00,VWS V14.01,2013-02-08 05:39:00,
2013-02-08 00:40:00,49.5,33.1,29.00,South,180,4.3,4.3,53,0.00,,,0.00,VWS V14.01,2013-02-08 05:40:00,
2013-02-08 00:41:00,51.4,17.7,28.73,South,180,5.8,5.8,26,0.00,,---,0.00,VWS V14.01,2013-02-08 05:41:00,
2013-02-08 00:42:00,49.6,33.2,29.00,South,180,2.0,4.7,53,0.00,,,0.00,VWS V14.01,2013-02-08 05:42:00,
2013-02-08 00:43:00,49.6,33.2,29.00,SSW,202,2.7,3.6,53,0.00,,,0.00,VWS V14.01,2013-02-08 05:43:00,
2013-02-08 00:44:00,49.6,33.2,29.00,SSW,202,3.8,4.9,53,0.00,,,0.00,VWS V14.01,2013-02-08 05:44:00,
2013-02-08 00:45:00,49.6,33.2,29.00,SSW,202,2.9,4.0,53,0.00,,,0.00,VWS V14.01,2013-02-08 05:45:00,
2013-02-08 00:46:00,51.4,17.7,28.73,South,180,5.4,5.8,26,0.00,,---,0.00,VWS V14.01,2013-02-08 05:46:00,
2013-02-08 00:47:00,49.5,33.1,29.00,SSW,202,2.5,2.5,53,0.00,,,0.00,VWS V14.01,2013-02-08 05:47:00,
2013-02-08 00:48:00,49.5,33.1,29.00,SSW,202,3.6,3.6,53,0.00,,,0.00,VWS V14.01,2013-02-08 05:48:00,
2013-02-08 00:49:00,49.5,33.1,29.00,SW,225,2.7,3.6,53,0.00,,,0.00,VWS V14.01,2013-02-08 05:49:00,
2013-02-08 00:50:00,49.5,33.5,29.00,ESE,112,3.8,4.7,54,0.00,,,0.00,VWS V14.01,2013-02-08 05:50:00,
2013-02-08 00:51:00,51.4,17.7,28.73,SE,135,5.8,5.8,26,0.00,,---,0.00,VWS V14.01,2013-02-08 05:51:00,
2013-02-08 00:52:00,49.5,33.5,29.00,SSE,158,3.4,3.4,54,0.00,,,0.00,VWS V14.01,2013-02-08 05:52:00,
2013-02-08 00:53:00,49.6,34.2,29.00,South,180,1.6,6.0,55,0.00,,,0.00,VWS V14.01,2013-02-08 05:53:00,
2013-02-08 00:54:00,49.6,34.2,29.00,South,180,5.8,6.3,55,0.00,,,0.00,VWS V14.01,2013-02-08 05:54:00,
2013-02-08 00:55:00,49.6,34.2,29.00,SSW,202,5.6,5.8,55,0.00,,,0.00,VWS V14.01,2013-02-08 05:55:00,
2013-02-08 00:56:00,51.3,17.6,28.73,SE,135,5.8,5.8,26,0.00,,---,0.00,VWS V14.01,2013-02-08 05:56:00,
2013-02-08 00:57:00,49.6,34.6,29.00,SSW,202,8.7,8.7,56,0.00,,,0.00,VWS V14.01,2013-02-08 05:57:00,
2013-02-08 00:58:00,49.6,34.6,29.00,SSW,202,4.9,8.7,56,0.00,,,0.00,VWS V14.01,2013-02-08 05:58:00,
2013-02-08 00:59:00,49.8,34.3,29.00,SSW,202,3.4,4.9,55,0.00,,,0.00,VWS V14.01,2013-02-08 05:59:00,
2013-02-08 01:00:00,49.6,34.6,29.00,SSW,202,3.8,3.8,56,0.00,,,0.00,VWS V14.01,2013-02-08 06:00:00,
2013-02-08 01:01:00,51.1,18.3,28.73,SE,135,7.2,7.2,27,0.00,,---,0.00,VWS V14.01,2013-02-08 06:01:00,
2013-02-08 01:02:00,49.6,34.6,29.00,SSW,202,2.5,4.3,56,0.00,,,0.00,VWS V14.01,2013-02-08 06:02:00,
2013-02-08 01:03:00,49.6,34.2,29.00,SSW,202,0.9,2.9,55,0.00,,,0.00,VWS V14.01,2013-02-08 06:03:00,
2013-02-08 01:04:00,49.5,34.0,29.00,South,180,2.7,2.9,55,0.00,,,0.00,VWS V14.01,2013-02-08 06:04:00,
2013-02-08 01:05:00,49.5,34.4,29.00,SSW,202,2.0,2.7,56,0.00,,,0.00,VWS V14.01,2013-02-08 06:05:00,
2013-02-08 01:06:00,51.1,18.3,28.73,SE,135,3.6,3.6,27,0.00,,---,0.00,VWS V14.01,2013-02-08 06:06:00,
2013-02-08 01:07:00,49.3,33.8,29.00,SSW,202,0.0,0.0,55,0.00,,,0.00,VWS V14.01,2013-02-08 06:07:00,
2013-02-08 01:08:00,49.3,34.3,29.00,SSW,202,2.7,2.7,56,0.00,,,0.00,VWS V14.01,2013-02-08 06:08:00,
2013-02-08 01:09:00,49.3,34.3,29.00,WSW,248,3.8,4.3,56,0.00,,,0.00,VWS V14.01,2013-02-08 06:09:00,
2013-02-08 01:10:00,49.3,34.7,29.00,South,180,2.5,3.8,57,0.00,,,0.00,VWS V14.01,2013-02-08 06:10:00,
2013-02-08 01:11:00,50.9,18.1,28.73,South,180,4.9,4.9,27,0.00,,---,0.00,VWS V14.01,2013-02-08 06:11:00,
2013-02-08 01:12:00,49.3,34.3,29.00,SSW,202,4.3,4.3,56,0.00,,,0.00,VWS V14.01,2013-02-08 06:12:00,
2013-02-08 01:13:00,49.3,34.7,29.00,South,180,0.0,4.3,57,0.00,,,0.00,VWS V14.01,2013-02-08 06:13:00,
2013-02-08 01:14:00,49.3,34.7,29.00,South,180,2.0,3.8,57,0.00,,,0.00,VWS V14.01,2013-02-08 06:14:00,
2013-02-08 01:15:00,49.3,34.7,29.00,SSW,202,2.9,3.6,57,0.00,,,0.00,VWS V14.01,2013-02-08 06:15:00,
2013-02-08 01:16:00,50.7,18.0,28.73,South,180,5.4,5.4,27,0.00,,---,0.00,VWS V14.01,2013-02-08 06:16:00,
2013-02-08 01:17:00,49.3,35.2,29.00,WSW,248,2.9,3.1,58,0.00,,,0.00,VWS V14.01,2013-02-08 06:17:00,
2013-02-08 01:18:00,49.3,35.2,29.00,SSW,202,0.0,3.8,58,0.00,,,0.00,VWS V14.01,2013-02-08 06:18:00,
2013-02-08 01:19:00,49.3,35.2,29.00,South,180,2.5,2.7,58,0.00,,,0.00,VWS V14.01,2013-02-08 06:19:00,
2013-02-08 01:20:00,49.3,35.2,29.00,SSW,202,1.6,2.5,58,0.00,,,0.00,VWS V14.01,2013-02-08 06:20:00,
2013-02-08 01:21:00,50.7,18.0,28.73,SSE,158,3.6,3.6,27,0.00,,---,0.00,VWS V14.01,2013-02-08 06:21:00,
2013-02-08 01:22:00,49.1,34.5,29.00,SW,225,2.7,2.7,57,0.00,,,0.00,VWS V14.01,2013-02-08 06:22:00,
2013-02-08 01:23:00,49.1,35.4,29.00,South,180,0.0,4.0,59,0.00,,,0.00,VWS V14.01,2013-02-08 06:23:00,
2013-02-08 01:24:00,49.3,35.6,29.00,SW,225,2.5,2.7,59,0.00,,,0.00,VWS V14.01,2013-02-08 06:24:00,
2013-02-08 01:25:00,49.3,36.0,29.00,South,180,2.2,3.4,60,0.00,,,0.00,VWS V14.01,2013-02-08 06:25:00,
2013-02-08 01:26:00,50.5,18.7,28.73,SE,135,3.6,3.6,28,0.00,,---,0.00,VWS V14.01,2013-02-08 06:26:00,
2013-02-08 01:27:00,49.1,35.8,29.00,SSW,202,3.1,3.1,60,0.00,,,0.00,VWS V14.01,2013-02-08 06:27:00,
2013-02-08 01:28:00,49.3,36.0,29.00,South,180,0.9,3.8,60,0.00,,,0.00,VWS V14.01,2013-02-08 06:28:00,
2013-02-08 01:29:00,49.3,36.0,29.00,South,180,0.0,0.9,60,0.00,,,0.00,VWS V14.01,2013-02-08 06:29:00,
2013-02-08 01:30:00,49.1,35.8,29.00,SSW,202,2.7,3.8,60,0.00,,,0.00,VWS V14.01,2013-02-08 06:30:00,
2013-02-08 01:31:00,50.4,18.5,28.73,SE,135,5.8,5.8,28,0.00,,---,0.00,VWS V14.01,2013-02-08 06:31:00,
2013-02-08 01:32:00,49.3,36.4,29.00,SW,225,0.9,4.3,61,0.00,,,0.00,VWS V14.01,2013-02-08 06:32:00,
2013-02-08 01:34:00,49.3,36.8,29.00,SW,225,3.6,4.7,62,0.00,,,0.00,VWS V14.01,2013-02-08 06:34:00,
2013-02-08 01:35:00,49.3,37.2,29.00,SSW,202,3.1,5.4,63,0.00,,,0.00,VWS V14.01,2013-02-08 06:35:00,
2013-02-08 01:36:00,50.4,19.3,28.73,SE,135,3.1,4.0,29,0.00,,---,0.00,VWS V14.01,2013-02-08 06:36:00,
2013-02-08 01:37:00,49.3,37.2,29.00,South,180,0.0,2.9,63,0.00,,,0.00,VWS V14.01,2013-02-08 06:37:00,
2013-02-08 01:38:00,49.1,36.7,29.00,SSW,202,4.5,4.7,62,0.00,,,0.00,VWS V14.01,2013-02-08 06:38:00,
2013-02-08 01:39:00,48.9,37.3,29.00,South,180,0.0,4.5,64,0.00,,,0.00,VWS V14.01,2013-02-08 06:39:00,
2013-02-08 01:40:00,48.9,37.3,29.00,SSW,202,2.5,2.5,64,0.00,,,0.00,VWS V14.01,2013-02-08 06:40:00,
2013-02-08 01:41:00,50.4,19.3,28.73,South,180,5.4,5.4,29,0.00,,---,0.00,VWS V14.01,2013-02-08 06:41:00,
2013-02-08 01:42:00,48.7,37.5,29.00,South,180,0.0,2.0,65,0.00,,,0.00,VWS V14.01,2013-02-08 06:42:00,
2013-02-08 01:43:00,48.7,37.5,29.00,SW,225,1.6,2.0,65,0.00,,,0.00,VWS V14.01,2013-02-08 06:43:00,
2013-02-08 01:44:00,48.7,37.5,29.00,South,180,3.1,3.1,65,0.00,,,0.00,VWS V14.01,2013-02-08 06:44:00,
2013-02-08 01:45:00,48.7,38.7,29.00,South,180,3.4,5.6,68,0.00,,,0.00,VWS V14.01,2013-02-08 06:45:00,
2013-02-08 01:46:00,50.4,20.1,28.73,SE,135,6.3,6.3,30,0.00,,---,0.00,VWS V14.01,2013-02-08 06:46:00,
2013-02-08 01:47:00,48.7,39.4,29.00,SW,225,5.6,7.6,70,0.00,,,0.00,VWS V14.01,2013-02-08 06:47:00,
2013-02-08 01:48:00,48.7,39.4,29.00,SSW,202,0.0,5.6,70,0.00,,,0.00,VWS V14.01,2013-02-08 06:48:00,
2013-02-08 01:49:00,48.6,38.9,29.00,SSW,202,0.9,3.1,69,0.00,,,0.00,VWS V14.01,2013-02-08 06:49:00,
2013-02-08 01:50:00,48.6,38.9,29.00,SSW,202,2.5,2.7,69,0.00,,,0.00,VWS V14.01,2013-02-08 06:50:00,
2013-02-08 01:51:00,50.2,20.0,28.73,South,180,3.6,3.6,30,0.00,,---,0.00,VWS V14.01,2013-02-08 06:51:00,
2013-02-08 01:52:00,48.4,38.7,29.00,South,180,0.0,0.0,69,0.00,,,0.00,VWS V14.01,2013-02-08 06:52:00,
2013-02-08 01:53:00,48.2,38.5,29.00,SSW,202,0.0,0.0,69,0.00,,,0.00,VWS V14.01,2013-02-08 06:53:00,
2013-02-08 01:54:00,48.2,38.5,29.00,SW,225,0.0,0.9,69,0.00,,,0.00,VWS V14.01,2013-02-08 06:54:00,
2013-02-08 01:55:00,48.2,39.2,29.00,SW,225,3.4,3.4,71,0.00,,,0.00,VWS V14.01,2013-02-08 06:55:00,
2013-02-08 01:56:00,50.2,20.7,28.73,West,270,4.0,4.0,31,0.00,,---,0.00,VWS V14.01,2013-02-08 06:56:00,
2013-02-08 01:57:00,48.0,40.1,29.00,South,180,3.4,3.4,74,0.00,,,0.00,VWS V14.01,2013-02-08 06:57:00,
2013-02-08 01:58:00,48.0,40.5,29.00,SW,225,0.0,3.4,75,0.00,,,0.00,VWS V14.01,2013-02-08 06:58:00,
2013-02-08 01:59:00,48.0,40.1,29.00,SSW,202,2.5,2.5,74,0.00,,,0.00,VWS V14.01,2013-02-08 06:59:00,
2013-02-08 02:00:00,47.8,40.3,29.00,SSW,202,2.5,3.1,75,0.00,,,0.00,VWS V14.01,2013-02-08 07:00:00,
2013-02-08 02:01:00,50.2,20.7,28.73,SW,225,5.8,5.8,31,0.00,,---,0.00,VWS V14.01,2013-02-08 07:01:00,
2013-02-08 02:02:00,47.7,40.1,29.00,SSW,202,0.0,1.1,75,0.00,,,0.00,VWS V14.01,2013-02-08 07:02:00,
2013-02-08 02:03:00,47.7,40.1,29.00,SSW,202,2.5,2.5,75,0.00,,,0.00,VWS V14.01,2013-02-08 07:03:00,
2013-02-08 02:04:00,47.7,40.8,29.00,SSW,202,0.0,4.0,77,0.00,,,0.00,VWS V14.01,2013-02-08 07:04:00,
2013-02-08 02:05:00,47.7,41.2,29.00,SSW,202,0.0,2.7,78,0.00,,,0.00,VWS V14.01,2013-02-08 07:05:00,
2013-02-08 02:06:00,50.2,21.5,28.73,SE,135,5.4,8.3,32,0.00,,---,0.00,VWS V14.01,2013-02-08 07:06:00,
2013-02-08 02:07:00,47.5,40.6,29.00,SSW,202,0.0,0.0,77,0.00,,,0.00,VWS V14.01,2013-02-08 07:07:00,
2013-02-08 02:08:00,47.5,41.6,29.00,SW,225,2.5,3.1,80,0.00,,,0.00,VWS V14.01,2013-02-08 07:08:00,
2013-02-08 02:09:00,47.3,41.1,29.00,SW,225,2.5,2.7,79,0.00,,,0.00,VWS V14.01,2013-02-08 07:09:00,
2013-02-08 02:10:00,47.3,41.8,29.00,SSW,202,1.3,3.1,81,0.00,,,0.00,VWS V14.01,2013-02-08 07:10:00,
2013-02-08 02:11:00,50.2,22.2,28.73,South,180,5.4,5.4,33,0.00,,---,0.00,VWS V14.01,2013-02-08 07:11:00,
2013-02-08 02:12:00,47.3,42.1,29.00,SSE,158,2.7,2.9,82,0.00,,,0.00,VWS V14.01,2013-02-08 07:12:00,
2013-02-08 02:13:00,47.3,42.4,29.00,SSW,202,0.0,2.7,83,0.00,,,0.00,VWS V14.01,2013-02-08 07:13:00,
2013-02-08 02:14:00,47.3,42.1,29.00,SSW,202,0.0,0.0,82,0.00,,,0.00,VWS V14.01,2013-02-08 07:14:00,
2013-02-08 02:15:00,47.1,41.9,29.00,SSW,202,0.9,0.9,82,0.00,,,0.00,VWS V14.01,2013-02-08 07:15:00,
2013-02-08 02:16:00,50.0,23.4,28.73,SSW,202,6.3,6.3,35,0.00,,---,0.00,VWS V14.01,2013-02-08 07:16:00,
2013-02-08 02:17:00,47.1,42.2,29.00,SW,225,2.2,4.3,83,0.00,,,0.00,VWS V14.01,2013-02-08 07:17:00,
2013-02-08 02:18:00,47.1,42.5,29.00,South,180,0.0,2.9,84,0.00,,,0.00,VWS V14.01,2013-02-08 07:18:00,
2013-02-08 02:19:00,47.1,42.5,29.00,SSW,202,3.4,3.4,84,0.00,,,0.00,VWS V14.01,2013-02-08 07:19:00,
2013-02-08 02:20:00,47.1,42.5,29.00,SSW,202,0.0,3.4,84,0.00,,,0.00,VWS V14.01,2013-02-08 07:20:00,
2013-02-08 02:21:00,50.0,24.1,28.73,SW,225,4.0,4.9,36,0.00,,---,0.00,VWS V14.01,2013-02-08 07:21:00,
2013-02-08 02:22:00,47.1,42.8,29.00,SSW,202,0.0,1.1,85,0.00,,,0.00,VWS V14.01,2013-02-08 07:22:00,
2013-02-08 02:23:00,46.9,42.4,29.00,SSW,202,0.0,0.0,84,0.00,,,0.00,VWS V14.01,2013-02-08 07:23:00,
2013-02-08 02:24:00,47.1,42.8,29.00,SSW,202,0.0,2.0,85,0.00,,,0.00,VWS V14.01,2013-02-08 07:24:00,
2013-02-08 02:25:00,47.1,42.8,29.00,SSW,202,2.9,3.4,85,0.00,,,0.00,VWS V14.01,2013-02-08 07:25:00,
2013-02-08 02:26:00,49.8,24.6,28.73,SE,135,3.6,3.6,37,0.00,,---,0.00,VWS V14.01,2013-02-08 07:26:00,
2013-02-08 02:27:00,47.1,43.2,29.00,SSW,202,3.6,3.6,86,0.00,,,0.00,VWS V14.01,2013-02-08 07:27:00,
2013-02-08 02:28:00,47.1,43.5,29.00,SSW,202,0.0,3.6,87,0.00,,,0.00,VWS V14.01,2013-02-08 07:28:00,
2013-02-08 02:29:00,47.1,43.2,29.00,South,180,0.0,0.9,86,0.00,,,0.00,VWS V14.01,2013-02-08 07:29:00,
2013-02-08 02:30:00,46.9,43.0,29.00,SSW,202,0.9,0.9,86,0.00,,,0.00,VWS V14.01,2013-02-08 07:30:00,
2013-02-08 02:31:00,49.3,24.8,28.73,SSE,158,5.4,5.4,38,0.00,,---,0.00,VWS V14.01,2013-02-08 07:31:00,
2013-02-08 02:32:00,46.9,43.3,29.00,SSW,202,2.5,2.5,87,0.00,,,0.00,VWS V14.01,2013-02-08 07:32:00,
2013-02-08 02:33:00,46.9,43.3,29.00,South,180,0.0,2.5,87,0.00,,,0.00,VWS V14.01,2013-02-08 07:33:00,
2013-02-08 02:34:00,46.9,43.3,29.00,South,180,0.0,0.9,87,0.00,,,0.00,VWS V14.01,2013-02-08 07:34:00,
2013-02-08 02:35:00,46.9,43.3,29.00,SW,225,1.6,1.6,87,0.00,,,0.00,VWS V14.01,2013-02-08 07:35:00,
2013-02-08 02:36:00,48.9,25.7,28.73,South,180,3.1,3.1,40,0.00,,---,0.00,VWS V14.01,2013-02-08 07:36:00,
2013-02-08 02:37:00,46.9,43.6,29.00,SSW,202,1.3,2.2,88,0.00,,,0.00,VWS V14.01,2013-02-08 07:37:00,
2013-02-08 02:38:00,46.9,43.6,29.00,SSW,202,0.0,1.3,88,0.00,,,0.00,VWS V14.01,2013-02-08 07:38:00,
2013-02-08 02:39:00,46.9,43.9,29.00,SSW,202,1.6,3.1,89,0.00,,,0.00,VWS V14.01,2013-02-08 07:39:00,
2013-02-08 02:40:00,46.9,44.2,29.00,SW,225,2.5,3.6,90,0.00,,,0.00,VWS V14.01,2013-02-08 07:40:00,
2013-02-08 02:41:00,48.6,27.1,28.73,SE,135,2.7,3.1,43,0.00,,---,0.00,VWS V14.01,2013-02-08 07:41:00,
2013-02-08 02:42:00,46.8,44.0,29.00,SSW,202,1.1,2.2,90,0.00,,,0.00,VWS V14.01,2013-02-08 07:42:00,
2013-02-08 02:43:00,46.8,44.0,29.00,SSW,202,0.0,1.1,90,0.00,,,0.00,VWS V14.01,2013-02-08 07:43:00,
2013-02-08 02:44:00,46.8,43.7,29.00,SW,225,2.2,2.2,89,0.00,,,0.00,VWS V14.01,2013-02-08 07:44:00,
2013-02-08 02:45:00,46.8,43.7,29.00,SSW,202,0.9,3.4,89,0.00,,,0.00,VWS V14.01,2013-02-08 07:45:00,
2013-02-08 02:46:00,48.4,28.6,28.73,SE,135,4.0,4.0,46,0.00,,---,0.00,VWS V14.01,2013-02-08 07:46:00,
2013-02-08 02:47:00,46.8,44.0,29.00,SSW,202,0.0,0.0,90,0.00,,,0.00,VWS V14.01,2013-02-08 07:47:00,
2013-02-08 02:48:00,46.8,44.0,29.00,SW,225,0.0,2.7,90,0.00,,,0.00,VWS V14.01,2013-02-08 07:48:00,
2013-02-08 02:49:00,46.8,44.0,29.00,SW,225,3.4,3.4,90,0.00,,,0.00,VWS V14.01,2013-02-08 07:49:00,
2013-02-08 02:50:00,46.8,44.0,29.00,SSW,202,0.0,3.4,90,0.00,,,0.00,VWS V14.01,2013-02-08 07:50:00,
2013-02-08 02:51:00,48.2,28.9,28.73,SE,135,2.7,2.7,47,0.00,,---,0.00,VWS V14.01,2013-02-08 07:51:00,
2013-02-08 02:52:00,46.8,44.6,29.00,SSW,202,1.1,1.1,92,0.00,,,0.00,VWS V14.01,2013-02-08 07:52:00,
2013-02-08 02:53:00,46.8,44.6,29.00,SW,225,1.3,1.3,92,0.00,,,0.00,VWS V14.01,2013-02-08 07:53:00,
2013-02-08 02:54:00,46.8,44.8,29.00,WSW,248,2.7,2.7,93,0.00,,,0.00,VWS V14.01,2013-02-08 07:54:00,
2013-02-08 02:55:00,46.8,44.8,29.00,SSW,202,1.3,2.7,93,0.00,,,0.00,VWS V14.01,2013-02-08 07:55:00,
2013-02-08 02:56:00,48.0,29.8,28.73,SE,135,0.0,3.6,49,0.00,,---,0.00,VWS V14.01,2013-02-08 07:56:00,
2013-02-08 02:57:00,46.8,44.8,29.00,SSW,202,2.2,2.2,93,0.00,,,0.00,VWS V14.01,2013-02-08 07:57:00,
2013-02-08 02:58:00,46.8,44.8,29.00,SW,225,1.1,2.5,93,0.00,,,0.00,VWS V14.01,2013-02-08 07:58:00,
2013-02-08 02:59:00,46.8,45.1,29.00,South,180,0.0,2.2,94,0.00,,,0.00,VWS V14.01,2013-02-08 07:59:00,
2013-02-08 03:00:00,46.8,45.1,29.00,South,180,2.2,2.2,94,0.00,,,0.00,VWS V14.01,2013-02-08 08:00:00,
2013-02-08 03:01:00,48.0,30.8,28.73,SE,135,2.2,2.2,51,0.00,,---,0.00,VWS V14.01,2013-02-08 08:01:00,
2013-02-08 03:02:00,46.9,45.6,29.00,WSW,248,3.6,3.8,95,0.00,,,0.00,VWS V14.01,2013-02-08 08:02:00,
2013-02-08 03:03:00,46.8,45.7,29.00,SSW,202,2.2,3.6,96,0.00,,,0.00,VWS V14.01,2013-02-08 08:03:00,
2013-02-08 03:04:00,46.8,45.7,29.00,SSW,202,0.0,2.2,96,0.00,,,0.00,VWS V14.01,2013-02-08 08:04:00,
2013-02-08 03:05:00,46.8,45.7,29.00,SSW,202,1.3,1.3,96,0.00,,,0.00,VWS V14.01,2013-02-08 08:05:00,
2013-02-08 03:06:00,48.0,31.2,28.73,SE,135,2.7,3.1,52,0.00,,---,0.00,VWS V14.01,2013-02-08 08:06:00,
2013-02-08 03:07:00,46.8,45.4,29.00,West,270,0.0,0.0,95,0.00,,,0.00,VWS V14.01,2013-02-08 08:07:00,
2013-02-08 03:08:00,46.6,45.2,29.00,SW,225,3.8,3.8,95,0.00,,,0.00,VWS V14.01,2013-02-08 08:08:00,
2013-02-08 03:09:00,46.8,45.7,29.00,SSW,202,2.9,4.0,96,0.00,,,0.00,VWS V14.01,2013-02-08 08:09:00,
2013-02-08 03:10:00,46.8,45.7,29.00,SSW,202,1.6,3.6,96,0.00,,,0.00,VWS V14.01,2013-02-08 08:10:00,
2013-02-08 03:11:00,48.0,32.2,28.73,SE,135,2.7,2.7,54,0.04,,---,0.04,VWS V14.01,2013-02-08 08:11:00,
2013-02-08 03:12:00,46.8,46.0,29.00,SW,225,2.5,3.1,97,0.00,,,0.00,VWS V14.01,2013-02-08 08:12:00,
2013-02-08 03:13:00,46.8,46.0,29.00,WSW,248,2.5,3.1,97,0.00,,,0.00,VWS V14.01,2013-02-08 08:13:00,
2013-02-08 03:14:00,46.8,46.0,29.00,WSW,248,3.6,4.3,97,0.00,,,0.00,VWS V14.01,2013-02-08 08:14:00,
2013-02-08 03:15:00,46.8,46.0,29.00,WSW,248,2.7,3.6,97,0.00,,,0.00,VWS V14.01,2013-02-08 08:15:00,
2013-02-08 03:16:00,48.2,33.3,28.73,SE,135,2.2,2.7,56,0.04,,---,0.04,VWS V14.01,2013-02-08 08:16:00,
2013-02-08 03:17:00,46.9,46.1,29.00,SSW,202,2.7,2.9,97,0.00,,,0.00,VWS V14.01,2013-02-08 08:17:00,
2013-02-08 03:18:00,46.8,46.0,29.00,WSW,248,0.0,2.7,97,0.00,,,0.00,VWS V14.01,2013-02-08 08:18:00,
2013-02-08 03:19:00,46.8,46.0,29.00,WSW,248,0.0,1.3,97,0.00,,,0.00,VWS V14.01,2013-02-08 08:19:00,
2013-02-08 03:20:00,46.8,46.0,29.00,WSW,248,0.0,0.0,97,0.00,,,0.00,VWS V14.01,2013-02-08 08:20:00,
2013-02-08 03:21:00,48.2,34.1,28.73,SE,135,3.1,3.1,58,0.04,,---,0.04,VWS V14.01,2013-02-08 08:21:00,
2013-02-08 03:22:00,46.9,46.1,29.00,WSW,248,2.7,2.7,97,0.00,,,0.00,VWS V14.01,2013-02-08 08:22:00,
2013-02-08 03:23:00,46.9,46.4,29.00,SW,225,3.1,3.1,98,0.04,,,0.04,VWS V14.01,2013-02-08 08:23:00,
2013-02-08 03:24:00,46.9,46.4,29.00,WSW,248,2.5,3.1,98,0.04,,,0.04,VWS V14.01,2013-02-08 08:24:00,
2013-02-08 03:25:00,46.9,46.4,29.00,WNW,292,2.2,2.5,98,0.04,,,0.04,VWS V14.01,2013-02-08 08:25:00,
2013-02-08 03:26:00,48.4,36.0,28.73,SE,135,2.7,4.9,62,0.04,,---,0.04,VWS V14.01,2013-02-08 08:26:00,
2013-02-08 03:27:00,46.8,46.2,29.00,WNW,292,2.5,2.5,98,0.04,,,0.04,VWS V14.01,2013-02-08 08:27:00,
2013-02-08 03:28:00,46.8,46.2,29.00,NW,315,0.9,2.5,98,0.04,,,0.04,VWS V14.01,2013-02-08 08:28:00,
2013-02-08 03:29:00,46.8,46.2,29.00,NW,315,2.7,4.3,98,0.04,,,0.04,VWS V14.01,2013-02-08 08:29:00,
2013-02-08 03:30:00,46.8,46.2,29.00,WSW,248,4.7,4.7,98,0.04,,,0.04,VWS V14.01,2013-02-08 08:30:00,
2013-02-08 03:31:00,48.6,37.3,28.73,SE,135,3.1,3.1,65,0.04,,---,0.04,VWS V14.01,2013-02-08 08:31:00,
2013-02-08 03:32:00,46.6,46.0,29.00,NW,315,4.7,5.4,98,0.04,,,0.04,VWS V14.01,2013-02-08 08:32:00,
2013-02-08 03:33:00,46.4,45.9,29.00,WNW,292,0.0,4.7,98,0.04,,,0.04,VWS V14.01,2013-02-08 08:33:00,
2013-02-08 03:34:00,46.4,45.9,29.00,North,0,1.1,3.8,98,0.04,,,0.04,VWS V14.01,2013-02-08 08:34:00,
2013-02-08 03:35:00,46.4,45.9,29.00,NE,45,0.0,1.1,98,0.04,,,0.04,VWS V14.01,2013-02-08 08:35:00,
2013-02-08 03:36:00,48.7,38.7,28.73,SE,135,2.2,2.2,68,0.04,,---,0.04,VWS V14.01,2013-02-08 08:36:00,
2013-02-08 03:37:00,46.0,45.5,29.00,North,0,10.1,10.1,98,0.04,,,0.04,VWS V14.01,2013-02-08 08:37:00,
2013-02-08 03:38:00,45.9,45.1,29.00,West,270,3.4,10.1,97,0.04,,,0.04,VWS V14.01,2013-02-08 08:38:00,
2013-02-08 03:39:00,45.7,44.6,29.00,WSW,248,5.8,5.8,96,0.04,,,0.04,VWS V14.01,2013-02-08 08:39:00,
2013-02-08 03:40:00,45.5,44.4,29.00,NNW,338,6.3,6.5,96,0.04,,,0.04,VWS V14.01,2013-02-08 08:40:00,
2013-02-08 03:41:00,49.1,40.5,28.73,SE,135,2.2,2.7,72,0.04,,---,0.04,VWS V14.01,2013-02-08 08:41:00,
2013-02-08 03:42:00,45.3,44.0,29.00,NNW,338,4.0,4.0,95,0.04,,,0.04,VWS V14.01,2013-02-08 08:42:00,
2013-02-08 03:43:00,45.1,43.5,29.00,NW,315,6.5,6.5,94,0.04,,,0.04,VWS V14.01,2013-02-08 08:43:00,
2013-02-08 03:44:00,45.1,43.5,29.00,NW,315,6.5,6.5,94,0.04,,,0.04,VWS V14.01,2013-02-08 08:44:00,
2013-02-08 03:45:00,45.0,43.1,29.03,NW,315,3.1,6.5,93,0.04,,,0.04,VWS V14.01,2013-02-08 08:45:00,
2013-02-08 03:46:00,49.5,41.9,28.73,SE,135,0.0,0.0,75,0.04,,---,0.04,VWS V14.01,2013-02-08 08:46:00,
2013-02-08 03:47:00,44.8,42.6,29.03,North,0,2.7,3.4,92,0.04,,,0.04,VWS V14.01,2013-02-08 08:47:00,
2013-02-08 03:48:00,44.6,42.4,29.03,West,270,2.9,3.8,92,0.04,,,0.04,VWS V14.01,2013-02-08 08:48:00,
2013-02-08 03:49:00,44.6,42.4,29.03,WNW,292,4.0,4.0,92,0.04,,,0.04,VWS V14.01,2013-02-08 08:49:00,
2013-02-08 03:50:00,44.6,42.4,29.03,WNW,292,2.0,4.9,92,0.04,,,0.04,VWS V14.01,2013-02-08 08:50:00,
2013-02-08 03:51:00,50.0,43.1,28.73,SE,135,3.1,3.1,77,0.04,,---,0.04,VWS V14.01,2013-02-08 08:51:00,
2013-02-08 03:52:00,44.4,42.2,29.03,WNW,292,2.0,4.0,92,0.04,,,0.04,VWS V14.01,2013-02-08 08:52:00,
2013-02-08 03:53:00,44.2,42.1,29.03,WNW,292,2.0,2.0,92,0.04,,,0.04,VWS V14.01,2013-02-08 08:53:00,
2013-02-08 03:54:00,44.2,42.1,29.03,West,270,3.8,3.8,92,0.04,,,0.04,VWS V14.01,2013-02-08 08:54:00,
2013-02-08 03:55:00,44.2,42.1,29.03,WSW,248,1.3,3.8,92,0.04,,,0.04,VWS V14.01,2013-02-08 08:55:00,
2013-02-08 03:56:00,50.4,44.4,28.73,SE,135,0.0,0.0,80,0.04,,---,0.04,VWS V14.01,2013-02-08 08:56:00,
2013-02-08 03:57:00,44.1,42.2,29.03,WNW,292,2.9,2.9,93,0.04,,,0.04,VWS V14.01,2013-02-08 08:57:00,
2013-02-08 03:58:00,44.1,42.2,29.03,WNW,292,2.9,2.9,93,0.04,,,0.04,VWS V14.01,2013-02-08 08:58:00,
2013-02-08 03:59:00,44.1,42.2,29.03,WNW,292,2.9,2.9,93,0.04,,,0.04,VWS V14.01,2013-02-08 08:59:00,
2013-02-08 04:00:00,44.1,42.2,29.03,WNW,292,2.9,2.9,93,0.04,,,0.04,VWS V14.01,2013-02-08 09:00:00,
2013-02-08 04:01:00,50.9,45.6,28.73,SSE,158,3.1,3.1,82,0.04,,---,0.04,VWS V14.01,2013-02-08 09:01:00,
2013-02-08 04:02:00,43.9,42.0,29.03,WNW,292,2.9,2.9,93,0.04,,,0.04,VWS V14.01,2013-02-08 09:02:00,
2013-02-08 04:03:00,43.9,42.0,29.03,WNW,292,2.9,2.9,93,0.04,,,0.04,VWS V14.01,2013-02-08 09:03:00,
2013-02-08 04:04:00,43.7,42.1,29.03,NNW,338,3.6,3.6,94,0.04,,,0.04,VWS V14.01,2013-02-08 09:04:00,
2013-02-08 04:05:00,43.7,42.1,29.03,NNW,338,3.6,3.6,94,0.04,,,0.04,VWS V14.01,2013-02-08 09:05:00,
2013-02-08 04:06:00,51.4,46.8,28.73,SW,225,0.0,2.7,84,0.04,,---,0.04,VWS V14.01,2013-02-08 09:06:00,
2013-02-08 04:07:00,43.7,42.4,29.03,NW,315,6.0,6.0,95,0.04,,,0.04,VWS V14.01,2013-02-08 09:07:00,
2013-02-08 04:08:00,43.5,42.2,29.03,NW,315,6.0,6.0,95,0.04,,,0.04,VWS V14.01,2013-02-08 09:08:00,
2013-02-08 04:09:00,43.5,42.2,29.03,NW,315,6.0,6.0,95,0.04,,,0.04,VWS V14.01,2013-02-08 09:09:00,
2013-02-08 04:10:00,43.3,42.0,29.03,NW,315,6.0,6.0,95,0.04,,,0.04,VWS V14.01,2013-02-08 09:10:00,
2013-02-08 04:11:00,51.8,47.1,28.73,WNW,292,0.0,0.0,84,0.00,,---,0.04,VWS V14.01,2013-02-08 09:11:00,
2013-02-08 04:12:00,43.2,41.5,29.03,NW,315,6.0,6.0,94,0.04,,,0.04,VWS V14.01,2013-02-08 09:12:00,
2013-02-08 04:13:00,43.0,41.4,29.03,NNE,22,4.9,6.0,94,0.04,,,0.04,VWS V14.01,2013-02-08 09:13:00,
2013-02-08 04:14:00,43.0,41.4,29.03,WNW,292,1.6,4.9,94,0.04,,,0.04,VWS V14.01,2013-02-08 09:14:00,
2013-02-08 04:15:00,42.8,41.2,29.03,WNW,292,1.6,1.6,94,0.04,,,0.04,VWS V14.01,2013-02-08 09:15:00,
2013-02-08 04:16:00,52.3,47.7,28.73,WNW,292,0.0,2.2,84,0.00,,---,0.04,VWS V14.01,2013-02-08 09:16:00,
2013-02-08 04:17:00,42.4,40.6,29.03,NW,315,3.8,3.8,93,0.08,,,0.08,VWS V14.01,2013-02-08 09:17:00,
2013-02-08 04:18:00,42.4,40.6,29.03,West,270,5.8,7.4,93,0.08,,,0.08,VWS V14.01,2013-02-08 09:18:00,
2013-02-08 04:19:00,42.4,40.6,29.03,NE,45,6.0,6.0,93,0.08,,,0.08,VWS V14.01,2013-02-08 09:19:00,
2013-02-08 04:20:00,42.1,39.9,29.03,North,0,5.4,6.0,92,0.08,,,0.08,VWS V14.01,2013-02-08 09:20:00,
2013-02-08 04:21:00,53.1,48.4,28.73,WNW,292,0.0,0.0,84,0.00,,---,0.04,VWS V14.01,2013-02-08 09:21:00,
2013-02-08 04:22:00,41.9,39.5,29.03,NW,315,3.8,3.8,91,0.08,,,0.08,VWS V14.01,2013-02-08 09:22:00,
2013-02-08 04:23:00,41.9,39.2,29.03,WNW,292,1.1,3.8,90,0.08,,,0.08,VWS V14.01,2013-02-08 09:23:00,
2013-02-08 04:24:00,41.7,39.0,29.03,WNW,292,8.7,8.7,90,0.04,,,0.08,VWS V14.01,2013-02-08 09:24:00,
2013-02-08 04:25:00,41.5,38.5,29.03,NNW,338,4.7,8.7,89,0.04,,,0.08,VWS V14.01,2013-02-08 09:25:00,
2013-02-08 04:26:00,53.4,49.0,28.73,WNW,292,2.7,2.7,85,0.00,,---,0.04,VWS V14.01,2013-02-08 09:26:00,
2013-02-08 04:27:00,41.4,38.1,29.03,WNW,292,2.7,4.0,88,0.04,,,0.08,VWS V14.01,2013-02-08 09:27:00,
2013-02-08 04:28:00,41.4,38.1,29.03,NNW,338,4.3,4.9,88,0.04,,,0.08,VWS V14.01,2013-02-08 09:28:00,
2013-02-08 04:29:00,41.2,37.9,29.03,NW,315,2.7,4.3,88,0.04,,,0.08,VWS V14.01,2013-02-08 09:29:00,
2013-02-08 04:30:00,41.2,37.9,29.06,NW,315,0.0,3.4,88,0.04,,,0.08,VWS V14.01,2013-02-08 09:30:00,
2013-02-08 04:31:00,54.5,50.1,28.73,NW,315,4.5,5.8,85,0.00,,---,0.04,VWS V14.01,2013-02-08 09:31:00,
2013-02-08 04:32:00,41.0,37.7,29.06,NE,45,4.3,4.9,88,0.04,,,0.08,VWS V14.01,2013-02-08 09:32:00,
2013-02-08 04:33:00,41.0,37.7,29.06,NNW,338,4.3,4.3,88,0.04,,,0.08,VWS V14.01,2013-02-08 09:33:00,
2013-02-08 04:34:00,40.8,37.8,29.06,West,270,4.7,5.6,89,0.04,,,0.08,VWS V14.01,2013-02-08 09:34:00,
2013-02-08 04:35:00,40.8,37.8,29.06,West,270,4.7,4.7,89,0.04,,,0.08,VWS V14.01,2013-02-08 09:35:00,
2013-02-08 04:36:00,55.0,50.6,28.73,NW,315,8.1,8.1,85,0.00,,---,0.04,VWS V14.01,2013-02-08 09:36:00,
2013-02-08 04:37:00,40.6,37.7,29.06,ENE,68,3.1,3.1,89,0.04,,,0.08,VWS V14.01,2013-02-08 09:37:00,
2013-02-08 04:38:00,40.6,37.7,29.06,WNW,292,0.0,3.8,89,0.04,,,0.08,VWS V14.01,2013-02-08 09:38:00,
2013-02-08 04:39:00,40.6,37.7,29.06,WNW,292,3.1,3.1,89,0.04,,,0.08,VWS V14.01,2013-02-08 09:39:00,
2013-02-08 04:40:00,40.5,37.8,29.06,WNW,292,3.1,3.1,90,0.04,,,0.08,VWS V14.01,2013-02-08 09:40:00,
2013-02-08 04:41:00,54.0,49.2,28.73,NW,315,7.6,8.3,84,0.00,,---,0.04,VWS V14.01,2013-02-08 09:41:00,
2013-02-08 04:42:00,40.3,37.6,29.06,NW,315,1.3,6.5,90,0.04,,,0.08,VWS V14.01,2013-02-08 09:42:00,
2013-02-08 04:43:00,40.3,37.6,29.06,NW,315,2.9,3.1,90,0.04,,,0.08,VWS V14.01,2013-02-08 09:43:00,
2013-02-08 04:44:00,40.3,37.6,29.06,North,0,1.1,2.9,90,0.04,,,0.08,VWS V14.01,2013-02-08 09:44:00,
2013-02-08 04:45:00,40.3,37.6,29.06,North,0,1.1,1.1,90,0.04,,,0.08,VWS V14.01,2013-02-08 09:45:00,
2013-02-08 04:46:00,54.0,49.2,28.73,NW,315,8.7,8.7,84,0.00,,---,0.04,VWS V14.01,2013-02-08 09:46:00,
2013-02-08 04:47:00,40.1,37.4,29.03,NW,315,3.1,3.1,90,0.04,,,0.08,VWS V14.01,2013-02-08 09:47:00,
2013-02-08 04:48:00,39.9,37.2,29.03,NW,315,3.1,3.1,90,0.04,,,0.08,VWS V14.01,2013-02-08 09:48:00,
2013-02-08 04:49:00,39.7,36.8,29.03,WSW,248,5.6,5.6,89,0.04,,,0.08,VWS V14.01,2013-02-08 09:49:00,
2013-02-08 04:50:00,39.7,36.5,29.03,WSW,248,5.6,5.6,88,0.04,,,0.08,VWS V14.01,2013-02-08 09:50:00,
2013-02-08 04:51:00,50.0,39.5,28.73,WNW,292,7.2,8.3,67,0.00,,---,0.04,VWS V14.01,2013-02-08 09:51:00,
2013-02-08 04:52:00,39.6,36.0,29.03,NW,315,5.4,5.6,87,0.04,,,0.08,VWS V14.01,2013-02-08 09:52:00,
2013-02-08 04:53:00,39.6,36.0,29.03,NW,315,5.4,5.4,87,0.04,,,0.08,VWS V14.01,2013-02-08 09:53:00,
2013-02-08 04:54:00,39.4,35.8,29.03,NW,315,5.4,5.4,87,0.04,,,0.08,VWS V14.01,2013-02-08 09:54:00,
2013-02-08 04:55:00,39.4,35.8,29.03,NW,315,5.4,5.4,87,0.04,,,0.08,VWS V14.01,2013-02-08 09:55:00,
2013-02-08 04:56:00,49.1,37.5,28.73,WNW,292,5.4,5.4,64,0.00,,---,0.04,VWS V14.01,2013-02-08 09:56:00,
2013-02-08 04:57:00,39.4,35.8,29.03,NNW,338,3.8,3.8,87,0.04,,,0.08,VWS V14.01,2013-02-08 09:57:00,
2013-02-08 04:58:00,39.2,35.7,29.03,NNW,338,3.8,3.8,87,0.04,,,0.08,VWS V14.01,2013-02-08 09:58:00,
2013-02-08 04:59:00,39.2,35.4,29.03,NNW,338,3.8,3.8,86,0.04,,,0.08,VWS V14.01,2013-02-08 09:59:00,
2013-02-08 05:00:00,39.2,35.4,29.03,NNW,338,3.8,3.8,86,0.04,,,0.08,VWS V14.01,2013-02-08 10:00:00,
2013-02-08 05:01:00,49.1,37.5,28.76,NW,315,5.4,6.3,64,0.00,,---,0.04,VWS V14.01,2013-02-08 10:01:00,
2013-02-08 05:02:00,39.2,35.4,29.03,NNW,338,3.8,3.8,86,0.04,,,0.08,VWS V14.01,2013-02-08 10:02:00,
2013-02-08 05:03:00,39.0,35.2,29.03,NNW,338,3.8,3.8,86,0.04,,,0.08,VWS V14.01,2013-02-08 10:03:00,
2013-02-08 05:04:00,39.0,35.2,29.03,NNW,338,3.8,3.8,86,0.04,,,0.08,VWS V14.01,2013-02-08 10:04:00,
2013-02-08 05:05:00,38.8,35.0,29.03,NNW,338,3.8,3.8,86,0.04,,,0.08,VWS V14.01,2013-02-08 10:05:00,
2013-02-08 05:06:00,49.1,37.5,28.76,NNW,338,4.9,4.9,64,0.00,,---,0.04,VWS V14.01,2013-02-08 10:06:00,
2013-02-08 05:07:00,38.8,35.0,29.03,NNW,338,3.8,3.8,86,0.04,,,0.08,VWS V14.01,2013-02-08 10:07:00,
2013-02-08 05:08:00,38.8,35.0,29.03,NNW,338,3.8,3.8,86,0.04,,,0.08,VWS V14.01,2013-02-08 10:08:00,
2013-02-08 05:09:00,38.8,35.0,29.03,NNW,338,3.8,3.8,86,0.04,,,0.08,VWS V14.01,2013-02-08 10:09:00,
2013-02-08 05:10:00,38.7,34.8,29.03,NNW,338,3.8,3.8,86,0.04,,,0.08,VWS V14.01,2013-02-08 10:10:00,
2013-02-08 05:11:00,46.6,32.6,28.76,WNW,292,7.2,8.7,58,0.00,,---,0.04,VWS V14.01,2013-02-08 10:11:00,
2013-02-08 05:12:00,38.7,34.8,29.03,NNW,338,3.8,3.8,86,0.04,,,0.08,VWS V14.01,2013-02-08 10:12:00,
2013-02-08 05:13:00,38.7,35.1,29.03,NNW,338,3.8,3.8,87,0.04,,,0.08,VWS V14.01,2013-02-08 10:13:00,
2013-02-08 05:14:00,38.7,35.1,29.03,NNW,338,3.8,3.8,87,0.04,,,0.08,VWS V14.01,2013-02-08 10:14:00,
2013-02-08 05:15:00,38.7,35.1,29.03,NNW,338,3.8,3.8,87,0.04,,,0.08,VWS V14.01,2013-02-08 10:15:00,
2013-02-08 05:16:00,46.6,32.6,28.76,NW,315,10.5,10.5,58,0.05,,---,0.09,VWS V14.01,2013-02-08 10:16:00,
2013-02-08 05:17:00,38.5,35.0,29.06,NNW,338,3.8,3.8,87,0.00,,,0.08,VWS V14.01,2013-02-08 10:17:00,
2013-02-08 05:18:00,38.5,35.0,29.06,NNW,338,3.8,3.8,87,0.00,,,0.08,VWS V14.01,2013-02-08 10:18:00,
2013-02-08 05:19:00,38.5,35.0,29.06,NNW,338,3.8,3.8,87,0.00,,,0.08,VWS V14.01,2013-02-08 10:19:00,
2013-02-08 05:20:00,38.5,35.0,29.06,NNW,338,3.8,3.8,87,0.00,,,0.08,VWS V14.01,2013-02-08 10:20:00,
2013-02-08 05:21:00,46.6,32.6,28.76,NW,315,3.6,6.3,58,0.05,,---,0.09,VWS V14.01,2013-02-08 10:21:00,
2013-02-08 05:22:00,38.5,35.0,29.06,NNW,338,3.8,3.8,87,0.00,,,0.08,VWS V14.01,2013-02-08 10:22:00,
2013-02-08 05:23:00,38.5,35.0,29.06,NNW,338,3.8,3.8,87,0.00,,,0.08,VWS V14.01,2013-02-08 10:23:00,
2013-02-08 05:24:00,38.5,35.0,29.06,NNW,338,3.8,3.8,87,0.00,,,0.08,VWS V14.01,2013-02-08 10:24:00,
2013-02-08 05:25:00,38.3,35.1,29.06,NNW,338,3.8,3.8,88,0.00,,,0.08,VWS V14.01,2013-02-08 10:25:00,
2013-02-08 05:26:00,44.6,30.3,28.76,WNW,292,7.6,7.6,57,0.05,,---,0.09,VWS V14.01,2013-02-08 10:26:00,
2013-02-08 05:27:00,38.3,35.1,29.06,NNW,338,3.8,3.8,88,0.00,,,0.08,VWS V14.01,2013-02-08 10:27:00,
2013-02-08 05:28:00,38.3,35.1,29.06,NNW,338,3.8,3.8,88,0.00,,,0.08,VWS V14.01,2013-02-08 10:28:00,
2013-02-08 05:29:00,38.3,35.1,29.06,NNW,338,3.8,3.8,88,0.00,,,0.08,VWS V14.01,2013-02-08 10:29:00,
2013-02-08 05:30:00,38.3,35.1,29.06,NNW,338,3.8,3.8,88,0.00,,,0.08,VWS V14.01,2013-02-08 10:30:00,
2013-02-08 05:31:00,44.6,30.3,28.79,West,270,4.9,7.6,57,0.05,,---,0.09,VWS V14.01,2013-02-08 10:31:00,
2013-02-08 05:32:00,38.1,34.9,29.06,North,0,3.1,7.4,88,0.00,,,0.08,VWS V14.01,2013-02-08 10:32:00,
2013-02-08 05:33:00,38.1,34.9,29.06,WNW,292,3.4,3.4,88,0.00,,,0.08,VWS V14.01,2013-02-08 10:33:00,
2013-02-08 05:34:00,37.9,34.4,29.06,WNW,292,3.4,3.4,87,0.00,,,0.08,VWS V14.01,2013-02-08 10:34:00,
2013-02-08 05:35:00,37.9,34.4,29.06,North,0,1.1,3.4,87,0.00,,,0.08,VWS V14.01,2013-02-08 10:35:00,
2013-02-08 05:36:00,44.1,30.7,28.79,WNW,292,6.3,6.3,59,0.05,,---,0.09,VWS V14.01,2013-02-08 10:36:00,
2013-02-08 05:37:00,37.9,34.1,29.06,North,0,1.1,1.1,86,0.00,,,0.08,VWS V14.01,2013-02-08 10:37:00,
2013-02-08 05:38:00,37.9,34.1,29.06,North,0,1.1,1.1,86,0.00,,,0.08,VWS V14.01,2013-02-08 10:38:00,
2013-02-08 05:39:00,37.9,34.1,29.06,NNW,338,0.0,1.1,86,0.00,,,0.08,VWS V14.01,2013-02-08 10:39:00,
2013-02-08 05:40:00,37.9,34.1,29.06,NNW,338,0.0,0.0,86,0.00,,,0.08,VWS V14.01,2013-02-08 10:40:00,
2013-02-08 05:41:00,43.7,30.7,28.79,NW,315,7.6,7.6,60,0.05,,---,0.09,VWS V14.01,2013-02-08 10:41:00,
2013-02-08 05:42:00,37.8,33.7,29.06,NNW,338,2.0,2.0,85,0.00,,,0.08,VWS V14.01,2013-02-08 10:42:00,
2013-02-08 05:43:00,37.8,33.7,29.06,NNW,338,2.0,2.0,85,0.00,,,0.08,VWS V14.01,2013-02-08 10:43:00,
2013-02-08 05:44:00,37.8,33.7,29.06,NNW,338,2.0,2.0,85,0.00,,,0.08,VWS V14.01,2013-02-08 10:44:00,
2013-02-08 05:45:00,37.8,33.7,29.06,NNW,338,2.0,2.0,85,0.00,,,0.08,VWS V14.01,2013-02-08 10:45:00,
2013-02-08 05:46:00,43.3,30.4,28.79,NW,315,3.1,4.0,60,0.05,,---,0.09,VWS V14.01,2013-02-08 10:46:00,
2013-02-08 05:47:00,37.8,34.0,29.09,WSW,248,1.6,2.0,86,0.00,,,0.08,VWS V14.01,2013-02-08 10:47:00,
2013-02-08 05:48:00,37.8,34.0,29.09,WNW,292,2.2,2.2,86,0.00,,,0.08,VWS V14.01,2013-02-08 10:48:00,
2013-02-08 05:49:00,37.6,33.8,29.09,WNW,292,2.2,2.2,86,0.00,,,0.08,VWS V14.01,2013-02-08 10:49:00,
2013-02-08 05:50:00,37.6,33.8,29.09,WNW,292,2.2,2.2,86,0.00,,,0.08,VWS V14.01,2013-02-08 10:50:00,
2013-02-08 05:51:00,43.0,29.6,28.79,NW,315,4.9,7.2,59,0.05,,---,0.09,VWS V14.01,2013-02-08 10:51:00,
2013-02-08 05:52:00,37.6,33.8,29.09,West,270,0.0,0.0,86,0.00,,,0.08,VWS V14.01,2013-02-08 10:52:00,
2013-02-08 05:53:00,37.6,33.8,29.09,West,270,0.0,0.0,86,0.00,,,0.08,VWS V14.01,2013-02-08 10:53:00,
2013-02-08 05:54:00,37.6,33.8,29.09,NNW,338,3.1,3.1,86,0.00,,,0.08,VWS V14.01,2013-02-08 10:54:00,
2013-02-08 05:55:00,37.4,33.6,29.09,North,0,4.0,4.0,86,0.00,,,0.08,VWS V14.01,2013-02-08 10:55:00,
2013-02-08 05:56:00,42.6,29.3,28.79,NW,315,7.2,7.2,59,0.05,,---,0.09,VWS V14.01,2013-02-08 10:56:00,
2013-02-08 05:57:00,37.4,33.6,29.09,North,0,4.0,4.0,86,0.00,,,0.08,VWS V14.01,2013-02-08 10:57:00,
2013-02-08 05:58:00,37.4,33.6,29.09,North,0,4.0,4.0,86,0.00,,,0.08,VWS V14.01,2013-02-08 10:58:00,
2013-02-08 05:59:00,37.4,33.6,29.09,North,0,4.0,4.0,86,0.00,,,0.08,VWS V14.01,2013-02-08 10:59:00,
2013-02-08 06:00:00,37.4,33.6,29.09,North,0,4.0,4.0,86,0.00,,,0.08,VWS V14.01,2013-02-08 11:00:00,
2013-02-08 06:01:00,42.3,29.0,28.79,WNW,292,3.1,8.1,59,0.05,,---,0.09,VWS V14.01,2013-02-08 11:01:00,
2013-02-08 06:02:00,37.4,33.6,29.09,NW,315,0.0,0.0,86,0.00,,,0.08,VWS V14.01,2013-02-08 11:02:00,
2013-02-08 06:03:00,37.2,33.4,29.09,NW,315,0.0,0.0,86,0.00,,,0.08,VWS V14.01,2013-02-08 11:03:00,
2013-02-08 06:04:00,37.2,33.4,29.09,NW,315,0.0,0.0,86,0.00,,,0.08,VWS V14.01,2013-02-08 11:04:00,
2013-02-08 06:05:00,37.2,33.4,29.09,NW,315,0.0,0.0,86,0.00,,,0.08,VWS V14.01,2013-02-08 11:05:00,
2013-02-08 06:06:00,41.7,27.6,28.79,NW,315,8.7,9.6,57,0.05,,---,0.09,VWS V14.01,2013-02-08 11:06:00,
2013-02-08 06:07:00,37.2,33.4,29.09,NW,315,0.0,0.0,86,0.00,,,0.08,VWS V14.01,2013-02-08 11:07:00,
2013-02-08 06:08:00,37.0,33.5,29.09,NW,315,0.0,0.0,87,0.00,,,0.08,VWS V14.01,2013-02-08 11:08:00,
2013-02-08 06:09:00,37.0,33.5,29.09,NW,315,0.0,0.0,87,0.00,,,0.08,VWS V14.01,2013-02-08 11:09:00,
2013-02-08 06:10:00,37.0,33.5,29.09,NW,315,0.0,0.0,87,0.00,,,0.08,VWS V14.01,2013-02-08 11:10:00,
2013-02-08 06:11:00,41.2,26.2,28.79,NW,315,5.4,5.4,55,0.05,,---,0.09,VWS V14.01,2013-02-08 11:11:00,
2013-02-08 06:12:00,36.9,33.4,29.09,NW,315,0.0,0.0,87,0.00,,,0.08,VWS V14.01,2013-02-08 11:12:00,
2013-02-08 06:13:00,36.9,33.4,29.09,WNW,292,4.9,4.9,87,0.00,,,0.08,VWS V14.01,2013-02-08 11:13:00,
2013-02-08 06:14:00,36.9,33.4,29.09,WNW,292,4.9,4.9,87,0.00,,,0.08,VWS V14.01,2013-02-08 11:14:00,
2013-02-08 06:15:00,36.9,33.4,29.09,WNW,292,4.9,4.9,87,0.00,,,0.08,VWS V14.01,2013-02-08 11:15:00,
2013-02-08 06:16:00,40.8,25.9,28.79,NW,315,5.4,8.1,55,0.00,,---,0.09,VWS V14.01,2013-02-08 11:16:00,
2013-02-08 06:17:00,36.9,33.7,29.09,West,270,2.9,2.9,88,0.00,,,0.08,VWS V14.01,2013-02-08 11:17:00,
2013-02-08 06:18:00,36.7,33.2,29.09,West,270,2.9,2.9,87,0.00,,,0.08,VWS V14.01,2013-02-08 11:18:00,
2013-02-08 06:19:00,36.7,33.2,29.09,West,270,2.9,2.9,87,0.00,,,0.08,VWS V14.01,2013-02-08 11:19:00,
2013-02-08 06:20:00,36.7,33.2,29.09,WSW,248,7.2,7.2,87,0.00,,,0.08,VWS V14.01,2013-02-08 11:20:00,
2013-02-08 06:21:00,40.6,26.2,28.79,NW,315,8.3,12.3,56,0.00,,---,0.09,VWS V14.01,2013-02-08 11:21:00,
2013-02-08 06:22:00,36.7,33.2,29.09,WNW,292,5.4,5.4,87,0.00,,,0.08,VWS V14.01,2013-02-08 11:22:00,
2013-02-08 06:23:00,36.5,33.0,29.09,WNW,292,5.4,5.4,87,0.00,,,0.08,VWS V14.01,2013-02-08 11:23:00,
2013-02-08 06:24:00,36.5,33.0,29.09,WNW,292,5.6,5.6,87,0.00,,,0.08,VWS V14.01,2013-02-08 11:24:00,
2013-02-08 06:25:00,36.5,33.0,29.09,WNW,292,5.6,5.6,87,0.00,,,0.08,VWS V14.01,2013-02-08 11:25:00,
2013-02-08 06:26:00,40.3,25.9,28.79,NW,315,10.1,10.1,56,0.00,,---,0.09,VWS V14.01,2013-02-08 11:26:00,
2013-02-08 06:27:00,36.3,32.8,29.09,WSW,248,8.7,8.7,87,0.00,,,0.08,VWS V14.01,2013-02-08 11:27:00,
2013-02-08 06:28:00,36.3,32.8,29.09,North,0,3.8,8.7,87,0.00,,,0.08,VWS V14.01,2013-02-08 11:28:00,
2013-02-08 06:29:00,36.3,32.8,29.09,NW,315,2.7,4.0,87,0.00,,,0.08,VWS V14.01,2013-02-08 11:29:00,
2013-02-08 06:30:00,36.3,32.8,29.09,NW,315,4.9,4.9,87,0.00,,,0.08,VWS V14.01,2013-02-08 11:30:00,
2013-02-08 06:31:00,40.1,25.7,28.82,NW,315,4.9,5.4,56,0.00,,---,0.09,VWS V14.01,2013-02-08 11:31:00,
2013-02-08 06:32:00,36.3,32.8,29.11,WNW,292,3.1,4.9,87,0.00,,,0.08,VWS V14.01,2013-02-08 11:32:00,
2013-02-08 06:33:00,36.1,32.4,29.11,NNW,338,3.4,3.4,86,0.00,,,0.08,VWS V14.01,2013-02-08 11:33:00,
2013-02-08 06:34:00,36.1,32.4,29.11,NNE,22,2.5,3.4,86,0.00,,,0.08,VWS V14.01,2013-02-08 11:34:00,
2013-02-08 06:35:00,36.1,32.4,29.11,NNE,22,2.5,2.5,86,0.00,,,0.08,VWS V14.01,2013-02-08 11:35:00,
2013-02-08 06:36:00,39.9,25.5,28.82,NW,315,9.6,9.6,56,0.00,,---,0.09,VWS V14.01,2013-02-08 11:36:00,
2013-02-08 06:37:00,36.0,31.9,29.11,NW,315,6.0,9.8,85,0.00,,,0.08,VWS V14.01,2013-02-08 11:37:00,
2013-02-08 06:38:00,36.0,31.6,29.11,WNW,292,2.9,6.0,84,0.00,,,0.08,VWS V14.01,2013-02-08 11:38:00,
2013-02-08 06:39:00,36.0,31.6,29.11,NW,315,3.4,3.4,84,0.00,,,0.08,VWS V14.01,2013-02-08 11:39:00,
2013-02-08 06:40:00,35.8,31.1,29.11,NW,315,3.4,3.4,83,0.00,,,0.08,VWS V14.01,2013-02-08 11:40:00,
2013-02-08 06:41:00,39.9,25.9,28.82,NW,315,9.6,9.6,57,0.00,,---,0.09,VWS V14.01,2013-02-08 11:41:00,
2013-02-08 06:42:00,35.8,30.8,29.11,NNW,338,1.3,3.4,82,0.00,,,0.08,VWS V14.01,2013-02-08 11:42:00,
2013-02-08 06:43:00,35.8,30.8,29.11,WNW,292,2.9,2.9,82,0.00,,,0.08,VWS V14.01,2013-02-08 11:43:00,
2013-02-08 06:44:00,35.6,30.7,29.11,WNW,292,2.9,2.9,82,0.00,,,0.08,VWS V14.01,2013-02-08 11:44:00,
2013-02-08 06:45:00,35.6,30.4,29.11,WNW,292,4.0,4.0,81,0.00,,,0.08,VWS V14.01,2013-02-08 11:45:00,
2013-02-08 06:46:00,39.7,24.9,28.82,WNW,292,5.8,6.3,55,0.00,,---,0.09,VWS V14.01,2013-02-08 11:46:00,
2013-02-08 06:47:00,35.6,30.0,29.11,WSW,248,4.0,4.0,80,0.00,,,0.08,VWS V14.01,2013-02-08 11:47:00,
2013-02-08 06:48:00,35.6,30.0,29.11,WNW,292,3.4,4.0,80,0.00,,,0.08,VWS V14.01,2013-02-08 11:48:00,
2013-02-08 06:49:00,35.6,30.0,29.11,NW,315,0.0,3.4,80,0.00,,,0.08,VWS V14.01,2013-02-08 11:49:00,
2013-02-08 06:50:00,35.6,30.0,29.11,WSW,248,0.0,0.0,80,0.00,,,0.08,VWS V14.01,2013-02-08 11:50:00,
2013-02-08 06:51:00,39.6,24.3,28.82,WNW,292,4.9,5.8,54,0.00,,---,0.09,VWS V14.01,2013-02-08 11:51:00,
2013-02-08 06:52:00,35.6,30.0,29.11,WNW,292,2.7,3.4,80,0.00,,,0.08,VWS V14.01,2013-02-08 11:52:00,
2013-02-08 06:53:00,35.6,30.0,29.11,WNW,292,2.7,2.7,80,0.00,,,0.08,VWS V14.01,2013-02-08 11:53:00,
2013-02-08 06:54:00,35.6,29.7,29.11,WNW,292,2.7,2.7,79,0.00,,,0.08,VWS V14.01,2013-02-08 11:54:00,
2013-02-08 06:55:00,35.6,29.7,29.11,WNW,292,2.7,2.7,79,0.00,,,0.08,VWS V14.01,2013-02-08 11:55:00,
2013-02-08 06:56:00,39.4,24.1,28.82,NW,315,4.9,4.9,54,0.00,,---,0.09,VWS V14.01,2013-02-08 11:56:00,
2013-02-08 06:57:00,35.6,29.7,29.11,WNW,292,2.7,2.7,79,0.00,,,0.08,VWS V14.01,2013-02-08 11:57:00,
2013-02-08 06:58:00,35.6,29.7,29.11,WNW,292,2.7,2.7,79,0.00,,,0.08,VWS V14.01,2013-02-08 11:58:00,
2013-02-08 06:59:00,35.6,29.7,29.11,WNW,292,2.7,2.7,79,0.00,,,0.08,VWS V14.01,2013-02-08 11:59:00,
2013-02-08 07:00:00,35.6,29.7,29.15,WNW,292,2.7,2.7,79,0.00,,,0.08,VWS V14.01,2013-02-08 12:00:00,
2013-02-08 07:01:00,39.0,23.4,28.82,NW,315,8.3,10.1,53,0.00,,---,0.09,VWS V14.01,2013-02-08 12:01:00,
2013-02-08 07:02:00,35.6,29.7,29.15,WNW,292,2.7,2.7,79,0.00,,,0.08,VWS V14.01,2013-02-08 12:02:00,
2013-02-08 07:03:00,35.6,29.7,29.15,WNW,292,2.7,2.7,79,0.00,,,0.08,VWS V14.01,2013-02-08 12:03:00,
2013-02-08 07:04:00,35.6,29.7,29.15,WNW,292,2.7,2.7,79,0.00,,,0.08,VWS V14.01,2013-02-08 12:04:00,
2013-02-08 07:05:00,35.6,29.7,29.15,WNW,292,2.7,2.7,79,0.00,,,0.08,VWS V14.01,2013-02-08 12:05:00,
2013-02-08 07:06:00,38.7,22.6,28.82,NW,315,4.9,4.9,52,0.00,,---,0.09,VWS V14.01,2013-02-08 12:06:00,
2013-02-08 07:07:00,35.6,29.7,29.15,WNW,292,2.7,2.7,79,0.00,,,0.08,VWS V14.01,2013-02-08 12:07:00,
2013-02-08 07:08:00,35.6,29.7,29.15,WNW,292,2.7,2.7,79,0.00,,,0.08,VWS V14.01,2013-02-08 12:08:00,
2013-02-08 07:09:00,35.6,29.7,29.15,WNW,292,2.7,2.7,79,0.00,,,0.08,VWS V14.01,2013-02-08 12:09:00,
2013-02-08 07:10:00,35.6,29.4,29.15,WNW,292,3.1,3.1,78,0.00,,,0.08,VWS V14.01,2013-02-08 12:10:00,
2013-02-08 07:11:00,38.5,22.4,28.82,NW,315,3.1,3.1,52,0.00,,---,0.09,VWS V14.01,2013-02-08 12:11:00,
2013-02-08 07:12:00,35.6,29.4,29.15,WNW,292,3.1,3.1,78,0.00,,,0.08,VWS V14.01,2013-02-08 12:12:00,
2013-02-08 07:13:00,35.6,29.4,29.15,WNW,292,3.1,3.1,78,0.00,,,0.08,VWS V14.01,2013-02-08 12:13:00,
2013-02-08 07:14:00,35.6,29.4,29.15,WNW,292,3.1,3.1,78,0.00,,,0.08,VWS V14.01,2013-02-08 12:14:00,
2013-02-08 07:15:00,35.6,29.4,29.11,NW,315,2.7,3.1,78,0.00,,,0.08,VWS V14.01,2013-02-08 12:15:00,
2013-02-08 07:16:00,38.3,22.2,28.82,NW,315,8.7,8.7,52,0.00,,---,0.09,VWS V14.01,2013-02-08 12:16:00,
2013-02-08 07:17:00,35.8,29.6,29.11,NW,315,2.7,2.7,78,0.00,,,0.08,VWS V14.01,2013-02-08 12:17:00,
2013-02-08 07:18:00,35.8,29.6,29.11,NW,315,2.7,2.7,78,0.00,,,0.08,VWS V14.01,2013-02-08 12:18:00,
2013-02-08 07:19:00,35.8,29.6,29.11,NW,315,2.7,2.7,78,0.00,,,0.08,VWS V14.01,2013-02-08 12:19:00,
2013-02-08 07:20:00,35.8,29.6,29.11,NW,315,2.7,2.7,78,0.00,,,0.08,VWS V14.01,2013-02-08 12:20:00,
2013-02-08 07:21:00,37.9,21.4,28.82,WNW,292,10.1,10.1,51,0.00,,---,0.09,VWS V14.01,2013-02-08 12:21:00,
2013-02-08 07:22:00,35.8,29.6,29.11,NW,315,2.7,2.7,78,0.00,,,0.08,VWS V14.01,2013-02-08 12:22:00,
2013-02-08 07:23:00,35.8,29.6,29.11,NW,315,2.7,2.7,78,0.00,,,0.08,VWS V14.01,2013-02-08 12:23:00,
2013-02-08 07:24:00,35.8,29.3,29.11,NW,315,2.7,2.7,77,0.00,,,0.08,VWS V14.01,2013-02-08 12:24:00,
2013-02-08 07:25:00,35.8,29.3,29.11,NW,315,2.7,2.7,77,0.00,,,0.08,VWS V14.01,2013-02-08 12:25:00,
2013-02-08 07:26:00,37.8,21.3,28.82,WNW,292,5.4,5.4,51,0.00,,---,0.09,VWS V14.01,2013-02-08 12:26:00,
2013-02-08 07:27:00,35.8,29.6,29.11,WSW,248,0.0,5.4,78,0.00,,,0.08,VWS V14.01,2013-02-08 12:27:00,
2013-02-08 07:28:00,35.8,29.6,29.11,WSW,248,0.0,0.0,78,0.00,,,0.08,VWS V14.01,2013-02-08 12:28:00,
2013-02-08 07:29:00,35.8,29.6,29.11,WSW,248,0.0,0.0,78,0.00,,,0.08,VWS V14.01,2013-02-08 12:29:00,
2013-02-08 07:30:00,35.8,29.6,29.15,WSW,248,0.0,0.0,78,0.00,,,0.08,VWS V14.01,2013-02-08 12:30:00,
2013-02-08 07:31:00,37.6,20.6,28.85,WNW,292,6.3,6.3,50,0.00,,---,0.09,VWS V14.01,2013-02-08 12:31:00,
2013-02-08 07:32:00,35.6,29.4,29.15,WNW,292,2.7,3.8,78,0.00,,,0.08,VWS V14.01,2013-02-08 12:32:00,
2013-02-08 07:33:00,35.8,29.6,29.15,WNW,292,2.7,2.7,78,0.00,,,0.08,VWS V14.01,2013-02-08 12:33:00,
2013-02-08 07:34:00,35.6,29.7,29.15,SW,225,2.0,2.7,79,0.00,,,0.08,VWS V14.01,2013-02-08 12:34:00,
2013-02-08 07:35:00,35.6,29.7,29.15,SW,225,2.0,2.0,79,0.00,,,0.08,VWS V14.01,2013-02-08 12:35:00,
2013-02-08 07:36:00,37.4,20.5,28.85,NW,315,4.9,6.3,50,0.00,,---,0.09,VWS V14.01,2013-02-08 12:36:00,
2013-02-08 07:37:00,35.6,29.7,29.15,WSW,248,2.5,2.5,79,0.00,,,0.08,VWS V14.01,2013-02-08 12:37:00,
2013-02-08 07:38:00,35.6,29.7,29.15,WSW,248,2.5,2.5,79,0.00,,,0.08,VWS V14.01,2013-02-08 12:38:00,
2013-02-08 07:39:00,35.6,29.7,29.15,WSW,248,2.5,2.5,79,0.00,,,0.08,VWS V14.01,2013-02-08 12:39:00,
2013-02-08 07:40:00,35.6,29.7,29.15,NW,315,2.5,2.5,79,0.00,,,0.08,VWS V14.01,2013-02-08 12:40:00,
2013-02-08 07:41:00,37.4,20.5,28.85,West,270,3.1,3.1,50,0.00,,---,0.09,VWS V14.01,2013-02-08 12:41:00,
2013-02-08 07:42:00,35.6,29.7,29.15,NW,315,2.5,2.5,79,0.00,,,0.08,VWS V14.01,2013-02-08 12:42:00,
2013-02-08 07:43:00,35.6,29.7,29.15,NW,315,2.5,2.5,79,0.00,,,0.08,VWS V14.01,2013-02-08 12:43:00,
2013-02-08 07:44:00,35.6,29.7,29.15,NW,315,2.5,2.5,79,0.00,,,0.08,VWS V14.01,2013-02-08 12:44:00,
2013-02-08 07:45:00,35.6,29.7,29.15,NW,315,2.5,2.5,79,0.00,,,0.08,VWS V14.01,2013-02-08 12:45:00,
2013-02-08 07:46:00,37.4,20.5,28.85,NW,315,4.9,5.8,50,0.00,,---,0.09,VWS V14.01,2013-02-08 12:46:00,
2013-02-08 07:47:00,35.6,29.7,29.15,NW,315,2.5,2.5,79,0.00,,,0.08,VWS V14.01,2013-02-08 12:47:00,
2013-02-08 07:48:00,35.6,29.7,29.15,NW,315,2.5,2.5,79,0.00,,,0.08,VWS V14.01,2013-02-08 12:48:00,
2013-02-08 07:49:00,35.6,29.7,29.15,NW,315,2.5,2.5,79,0.00,,,0.08,VWS V14.01,2013-02-08 12:49:00,
2013-02-08 07:50:00,35.6,29.7,29.15,SSW,202,2.5,2.5,79,0.00,,,0.08,VWS V14.01,2013-02-08 12:50:00,
2013-02-08 07:51:00,37.4,20.5,28.85,NW,315,5.4,5.4,50,0.00,,---,0.09,VWS V14.01,2013-02-08 12:51:00,
2013-02-08 07:52:00,35.6,29.7,29.15,SW,225,0.9,0.9,79,0.00,,,0.08,VWS V14.01,2013-02-08 12:52:00,
2013-02-08 07:53:00,35.6,29.7,29.15,SW,225,0.9,0.9,79,0.00,,,0.08,VWS V14.01,2013-02-08 12:53:00,
2013-02-08 07:54:00,35.6,29.7,29.15,SW,225,0.9,0.9,79,0.00,,,0.08,VWS V14.01,2013-02-08 12:54:00,
2013-02-08 07:55:00,35.6,29.7,29.15,SW,225,0.9,0.9,79,0.00,,,0.08,VWS V14.01,2013-02-08 12:55:00,
2013-02-08 07:56:00,37.0,20.1,28.85,West,270,4.9,4.9,50,0.00,,---,0.09,VWS V14.01,2013-02-08 12:56:00,
2013-02-08 07:57:00,35.6,30.0,29.15,SW,225,0.9,0.9,80,0.00,,,0.08,VWS V14.01,2013-02-08 12:57:00,
2013-02-08 07:58:00,35.4,29.9,29.15,SW,225,0.9,0.9,80,0.00,,,0.08,VWS V14.01,2013-02-08 12:58:00,
2013-02-08 07:59:00,35.4,29.9,29.15,NNW,338,5.4,5.4,80,0.00,,,0.08,VWS V14.01,2013-02-08 12:59:00,
2013-02-08 08:00:00,35.4,29.6,29.15,NNW,338,5.4,5.4,79,0.00,,,0.08,VWS V14.01,2013-02-08 13:00:00,
2013-02-08 08:01:00,37.0,20.1,28.85,NW,315,3.1,3.1,50,0.00,,---,0.09,VWS V14.01,2013-02-08 13:01:00,
2013-02-08 08:02:00,35.4,29.6,29.15,NNW,338,5.4,5.4,79,0.00,,,0.08,VWS V14.01,2013-02-08 13:02:00,
2013-02-08 08:03:00,35.4,29.6,29.15,NNW,338,5.4,5.4,79,0.00,,,0.08,VWS V14.01,2013-02-08 13:03:00,
2013-02-08 08:04:00,35.4,29.6,29.15,NNW,338,5.4,5.4,79,0.00,,,0.08,VWS V14.01,2013-02-08 13:04:00,
2013-02-08 08:05:00,35.4,29.6,29.15,NNW,338,5.4,5.4,79,0.00,,,0.08,VWS V14.01,2013-02-08 13:05:00,
2013-02-08 08:06:00,36.9,20.0,28.85,NW,315,5.8,5.8,50,0.00,,---,0.09,VWS V14.01,2013-02-08 13:06:00,
2013-02-08 08:07:00,35.4,29.6,29.15,NNW,338,5.4,5.4,79,0.00,,,0.08,VWS V14.01,2013-02-08 13:07:00,
2013-02-08 08:08:00,35.4,29.6,29.15,NNW,338,5.4,5.4,79,0.00,,,0.08,VWS V14.01,2013-02-08 13:08:00,
2013-02-08 08:09:00,35.4,29.6,29.15,NNW,338,5.4,5.4,79,0.00,,,0.08,VWS V14.01,2013-02-08 13:09:00,
2013-02-08 08:10:00,35.4,29.6,29.15,West,270,2.7,5.4,79,0.00,,,0.08,VWS V14.01,2013-02-08 13:10:00,
2013-02-08 08:11:00,36.9,19.0,28.85,WNW,292,3.6,6.3,48,0.00,,---,0.09,VWS V14.01,2013-02-08 13:11:00,
2013-02-08 08:12:00,35.4,29.6,29.15,West,270,2.7,2.7,79,0.00,,,0.08,VWS V14.01,2013-02-08 13:12:00,
2013-02-08 08:13:00,35.4,29.9,29.15,West,270,2.7,2.7,80,0.00,,,0.08,VWS V14.01,2013-02-08 13:13:00,
2013-02-08 08:14:00,35.4,29.9,29.15,West,270,2.7,2.7,80,0.00,,,0.08,VWS V14.01,2013-02-08 13:14:00,
2013-02-08 08:15:00,35.4,29.9,29.15,West,270,2.7,2.7,80,0.00,,,0.08,VWS V14.01,2013-02-08 13:15:00,
2013-02-08 08:16:00,36.9,19.0,28.85,West,270,12.3,12.3,48,0.00,,---,0.09,VWS V14.01,2013-02-08 13:16:00,
2013-02-08 08:17:00,35.4,29.9,29.17,West,270,2.7,2.7,80,0.00,,,0.08,VWS V14.01,2013-02-08 13:17:00,
2013-02-08 08:18:00,35.4,29.6,29.17,West,270,2.7,2.7,79,0.00,,,0.08,VWS V14.01,2013-02-08 13:18:00,
2013-02-08 08:19:00,35.4,29.6,29.17,WNW,292,2.5,2.7,79,0.00,,,0.08,VWS V14.01,2013-02-08 13:19:00,
2013-02-08 08:20:00,35.4,29.6,29.17,WNW,292,2.5,2.5,79,0.00,,,0.08,VWS V14.01,2013-02-08 13:20:00,
2013-02-08 08:21:00,36.9,19.0,28.85,NW,315,6.3,6.3,48,0.00,,---,0.09,VWS V14.01,2013-02-08 13:21:00,
2013-02-08 08:22:00,35.4,29.6,29.17,WNW,292,2.5,2.5,79,0.00,,,0.08,VWS V14.01,2013-02-08 13:22:00,
2013-02-08 08:23:00,35.4,29.9,29.17,WNW,292,2.5,2.5,80,0.00,,,0.08,VWS V14.01,2013-02-08 13:23:00,
2013-02-08 08:24:00,35.4,29.9,29.17,WNW,292,2.5,2.5,80,0.00,,,0.08,VWS V14.01,2013-02-08 13:24:00,
2013-02-08 08:25:00,35.4,29.9,29.17,WNW,292,2.5,2.5,80,0.00,,,0.08,VWS V14.01,2013-02-08 13:25:00,
2013-02-08 08:26:00,36.9,18.5,28.85,West,270,3.1,5.8,47,0.00,,---,0.09,VWS V14.01,2013-02-08 13:26:00,
2013-02-08 08:27:00,35.4,29.9,29.17,WSW,248,2.0,2.5,80,0.00,,,0.08,VWS V14.01,2013-02-08 13:27:00,
2013-02-08 08:28:00,35.4,29.9,29.17,WSW,248,2.0,2.0,80,0.00,,,0.08,VWS V14.01,2013-02-08 13:28:00,
2013-02-08 08:29:00,35.4,29.9,29.17,WSW,248,2.0,2.0,80,0.00,,,0.08,VWS V14.01,2013-02-08 13:29:00,
2013-02-08 08:30:00,35.4,29.9,29.17,WSW,248,2.0,2.0,80,0.00,,,0.08,VWS V14.01,2013-02-08 13:30:00,
2013-02-08 08:31:00,36.7,18.4,28.88,West,270,4.9,5.4,47,0.00,,---,0.09,VWS V14.01,2013-02-08 13:31:00,
2013-02-08 08:32:00,35.4,29.9,29.20,WSW,248,2.0,2.0,80,0.00,,,0.08,VWS V14.01,2013-02-08 13:32:00,
2013-02-08 08:33:00,35.4,29.9,29.20,WSW,248,2.0,2.0,80,0.00,,,0.08,VWS V14.01,2013-02-08 13:33:00,
2013-02-08 08:34:00,35.4,29.6,29.20,WSW,248,0.0,2.0,79,0.00,,,0.08,VWS V14.01,2013-02-08 13:34:00,
2013-02-08 08:35:00,35.4,29.6,29.20,WSW,248,0.0,0.0,79,0.00,,,0.08,VWS V14.01,2013-02-08 13:35:00,
2013-02-08 08:36:00,36.7,18.4,28.88,WNW,292,5.4,5.4,47,0.00,,---,0.09,VWS V14.01,2013-02-08 13:36:00,
2013-02-08 08:37:00,35.4,29.6,29.20,WSW,248,0.0,0.0,79,0.00,,,0.08,VWS V14.01,2013-02-08 13:37:00,
2013-02-08 08:38:00,35.4,29.6,29.20,West,270,2.0,2.0,79,0.00,,,0.08,VWS V14.01,2013-02-08 13:38:00,
2013-02-08 08:39:00,35.4,29.6,29.20,NNW,338,2.5,2.5,79,0.00,,,0.08,VWS V14.01,2013-02-08 13:39:00,
2013-02-08 08:40:00,35.4,29.6,29.20,NW,315,3.6,3.6,79,0.00,,,0.08,VWS V14.01,2013-02-08 13:40:00,
2013-02-08 08:41:00,36.7,18.4,28.88,WNW,292,2.7,4.0,47,0.00,,---,0.09,VWS V14.01,2013-02-08 13:41:00,
2013-02-08 08:42:00,35.4,29.6,29.20,NW,315,3.6,3.6,79,0.00,,,0.08,VWS V14.01,2013-02-08 13:42:00,
2013-02-08 08:43:00,35.4,29.6,29.20,NW,315,3.6,3.6,79,0.00,,,0.08,VWS V14.01,2013-02-08 13:43:00,
2013-02-08 08:44:00,35.4,29.6,29.20,NW,315,2.5,3.6,79,0.00,,,0.08,VWS V14.01,2013-02-08 13:44:00,
2013-02-08 08:45:00,35.4,29.6,29.20,NW,315,2.5,2.5,79,0.00,,,0.08,VWS V14.01,2013-02-08 13:45:00,
2013-02-08 08:46:00,36.7,18.4,28.88,WNW,292,3.1,3.1,47,0.00,,---,0.09,VWS V14.01,2013-02-08 13:46:00,
2013-02-08 08:47:00,35.4,29.6,29.20,WNW,292,5.4,5.4,79,0.00,,,0.08,VWS V14.01,2013-02-08 13:47:00,
2013-02-08 08:48:00,35.4,29.6,29.20,WNW,292,2.2,5.4,79,0.00,,,0.08,VWS V14.01,2013-02-08 13:48:00,
2013-02-08 08:49:00,35.4,29.6,29.20,SW,225,0.0,2.2,79,0.00,,,0.08,VWS V14.01,2013-02-08 13:49:00,
2013-02-08 08:50:00,35.4,29.6,29.20,SW,225,0.0,0.0,79,0.00,,,0.08,VWS V14.01,2013-02-08 13:50:00,
2013-02-08 08:51:00,36.7,18.9,28.88,West,270,4.0,4.0,48,0.00,,---,0.09,VWS V14.01,2013-02-08 13:51:00,
2013-02-08 08:52:00,35.4,29.6,29.20,WNW,292,3.4,3.4,79,0.00,,,0.08,VWS V14.01,2013-02-08 13:52:00,
2013-02-08 08:53:00,35.2,29.4,29.20,WNW,292,2.9,3.4,79,0.00,,,0.08,VWS V14.01,2013-02-08 13:53:00,
2013-02-08 08:54:00,35.2,29.4,29.20,WNW,292,2.9,2.9,79,0.00,,,0.08,VWS V14.01,2013-02-08 13:54:00,
2013-02-08 08:55:00,35.2,29.4,29.20,WNW,292,2.9,2.9,79,0.00,,,0.08,VWS V14.01,2013-02-08 13:55:00,
2013-02-08 08:56:00,36.7,18.4,28.88,NW,315,3.6,4.5,47,0.00,,---,0.09,VWS V14.01,2013-02-08 13:56:00,
2013-02-08 08:57:00,35.4,29.6,29.20,WSW,248,3.4,3.4,79,0.00,,,0.08,VWS V14.01,2013-02-08 13:57:00,
2013-02-08 08:58:00,35.2,29.4,29.20,North,0,6.5,6.5,79,0.00,,,0.08,VWS V14.01,2013-02-08 13:58:00,
2013-02-08 08:59:00,35.4,29.6,29.20,WNW,292,2.9,6.5,79,0.00,,,0.08,VWS V14.01,2013-02-08 13:59:00,
2013-02-08 09:00:00,35.4,29.6,29.20,NW,315,2.7,2.9,79,0.00,,,0.08,VWS V14.01,2013-02-08 14:00:00,
2013-02-08 09:01:00,36.7,18.9,28.88,WNW,292,4.0,5.8,48,0.00,,---,0.09,VWS V14.01,2013-02-08 14:01:00,
2013-02-08 09:02:00,35.4,29.6,29.17,NW,315,1.3,1.3,79,0.00,,,0.08,VWS V14.01,2013-02-08 14:02:00,
2013-02-08 09:03:00,35.4,29.6,29.17,South,180,0.0,2.0,79,0.00,,,0.08,VWS V14.01,2013-02-08 14:03:00,
2013-02-08 09:04:00,35.4,29.6,29.17,NE,45,3.6,3.6,79,0.00,,,0.08,VWS V14.01,2013-02-08 14:04:00,
2013-02-08 09:05:00,35.4,29.6,29.17,NE,45,3.6,3.6,79,0.00,,,0.08,VWS V14.01,2013-02-08 14:05:00,
2013-02-08 09:06:00,36.5,18.7,28.88,NW,315,0.0,8.7,48,0.00,,---,0.09,VWS V14.01,2013-02-08 14:06:00,
2013-02-08 09:07:00,35.4,29.6,29.17,WNW,292,3.6,3.6,79,0.00,,,0.08,VWS V14.01,2013-02-08 14:07:00,
2013-02-08 09:08:00,35.4,29.6,29.17,WNW,292,2.9,3.6,79,0.00,,,0.08,VWS V14.01,2013-02-08 14:08:00,
2013-02-08 09:09:00,35.4,29.6,29.17,NW,315,2.7,2.9,79,0.00,,,0.08,VWS V14.01,2013-02-08 14:09:00,
2013-02-08 09:10:00,35.4,29.6,29.17,WNW,292,2.7,2.7,79,0.00,,,0.08,VWS V14.01,2013-02-08 14:10:00,
2013-02-08 09:11:00,36.5,18.2,28.88,NW,315,8.1,8.1,47,0.00,,---,0.09,VWS V14.01,2013-02-08 14:11:00,
2013-02-08 09:12:00,35.4,29.6,29.17,WNW,292,3.4,3.4,79,0.00,,,0.08,VWS V14.01,2013-02-08 14:12:00,
2013-02-08 09:13:00,35.4,29.6,29.17,WNW,292,2.2,3.4,79,0.00,,,0.08,VWS V14.01,2013-02-08 14:13:00,
2013-02-08 09:14:00,35.4,29.6,29.17,WSW,248,0.0,2.2,79,0.00,,,0.08,VWS V14.01,2013-02-08 14:14:00,
2013-02-08 09:15:00,35.4,29.6,29.17,WSW,248,0.0,1.1,79,0.00,,,0.08,VWS V14.01,2013-02-08 14:15:00,
2013-02-08 09:16:00,36.5,17.7,28.91,NW,315,7.6,7.6,46,0.00,,---,0.09,VWS V14.01,2013-02-08 14:16:00,
2013-02-08 09:17:00,35.4,29.6,29.20,WSW,248,0.0,3.4,79,0.00,,,0.08,VWS V14.01,2013-02-08 14:17:00,
2013-02-08 09:18:00,35.4,29.6,29.20,WSW,248,2.5,4.3,79,0.00,,,0.08,VWS V14.01,2013-02-08 14:18:00,
2013-02-08 09:19:00,35.6,29.7,29.20,WNW,292,2.5,2.5,79,0.00,,,0.08,VWS V14.01,2013-02-08 14:19:00,
2013-02-08 09:20:00,35.6,29.7,29.20,SSW,202,0.0,3.1,79,0.00,,,0.08,VWS V14.01,2013-02-08 14:20:00,
2013-02-08 09:21:00,36.3,17.0,28.91,West,270,3.1,3.1,45,0.00,,---,0.09,VWS V14.01,2013-02-08 14:21:00,
2013-02-08 09:22:00,35.6,29.4,29.20,West,270,4.9,4.9,78,0.00,,,0.08,VWS V14.01,2013-02-08 14:22:00,
2013-02-08 09:23:00,35.6,29.4,29.20,SW,225,0.0,4.9,78,0.00,,,0.08,VWS V14.01,2013-02-08 14:23:00,
2013-02-08 09:24:00,35.6,29.4,29.20,SW,225,0.0,0.0,78,0.00,,,0.08,VWS V14.01,2013-02-08 14:24:00,
2013-02-08 09:25:00,35.6,29.4,29.20,WSW,248,3.4,4.3,78,0.00,,,0.08,VWS V14.01,2013-02-08 14:25:00,
2013-02-08 09:26:00,36.3,17.0,28.91,NW,315,5.4,5.4,45,0.00,,---,0.09,VWS V14.01,2013-02-08 14:26:00,
2013-02-08 09:27:00,35.6,29.4,29.20,SSW,202,2.0,3.8,78,0.00,,,0.08,VWS V14.01,2013-02-08 14:27:00,
2013-02-08 09:28:00,35.6,29.4,29.20,NNW,338,2.5,6.5,78,0.00,,,0.08,VWS V14.01,2013-02-08 14:28:00,
2013-02-08 09:29:00,35.6,29.1,29.20,WNW,292,1.6,4.0,77,0.00,,,0.08,VWS V14.01,2013-02-08 14:29:00,
2013-02-08 09:30:00,35.6,29.1,29.20,WSW,248,1.1,1.6,77,0.00,,,0.08,VWS V14.01,2013-02-08 14:30:00,
2013-02-08 09:31:00,36.3,17.5,28.91,NW,315,3.6,4.0,46,0.00,,---,0.09,VWS V14.01,2013-02-08 14:31:00,
2013-02-08 09:32:00,35.6,29.1,29.20,West,270,3.1,4.7,77,0.00,,,0.08,VWS V14.01,2013-02-08 14:32:00,
2013-02-08 09:33:00,35.6,29.1,29.20,WSW,248,6.0,6.5,77,0.00,,,0.08,VWS V14.01,2013-02-08 14:33:00,
2013-02-08 09:34:00,35.8,29.3,29.20,WSW,248,0.9,6.0,77,0.00,,,0.08,VWS V14.01,2013-02-08 14:34:00,
2013-02-08 09:35:00,35.8,29.3,29.20,North,0,0.0,0.9,77,0.00,,,0.08,VWS V14.01,2013-02-08 14:35:00,
2013-02-08 09:36:00,36.3,17.5,28.91,NW,315,7.2,7.2,46,0.00,,---,0.09,VWS V14.01,2013-02-08 14:36:00,
2013-02-08 09:37:00,35.8,29.3,29.20,WSW,248,0.0,0.0,77,0.00,,,0.08,VWS V14.01,2013-02-08 14:37:00,
2013-02-08 09:38:00,35.8,29.0,29.20,SW,225,2.2,5.8,76,0.00,,,0.08,VWS V14.01,2013-02-08 14:38:00,
2013-02-08 09:39:00,35.8,29.0,29.20,WSW,248,3.4,3.4,76,0.00,,,0.08,VWS V14.01,2013-02-08 14:39:00,
2013-02-08 09:40:00,35.8,29.0,29.20,WSW,248,2.5,3.4,76,0.00,,,0.08,VWS V14.01,2013-02-08 14:40:00,
2013-02-08 09:41:00,36.1,17.4,28.91,WNW,292,4.0,4.9,46,0.00,,---,0.09,VWS V14.01,2013-02-08 14:41:00,
2013-02-08 09:42:00,35.8,29.0,29.20,West,270,2.9,2.9,76,0.00,,,0.08,VWS V14.01,2013-02-08 14:42:00,
2013-02-08 09:43:00,35.6,28.8,29.20,West,270,2.9,2.9,76,0.00,,,0.08,VWS V14.01,2013-02-08 14:43:00,
2013-02-08 09:44:00,35.8,29.0,29.20,WSW,248,4.3,4.3,76,0.00,,,0.08,VWS V14.01,2013-02-08 14:44:00,
2013-02-08 09:45:00,35.6,28.8,29.20,WSW,248,4.3,4.3,76,0.00,,,0.08,VWS V14.01,2013-02-08 14:45:00,
2013-02-08 09:46:00,36.1,17.4,28.91,NW,315,5.4,5.4,46,0.00,,---,0.09,VWS V14.01,2013-02-08 14:46:00,
2013-02-08 09:47:00,35.6,28.5,29.20,West,270,4.0,4.0,75,0.00,,,0.08,VWS V14.01,2013-02-08 14:47:00,
2013-02-08 09:48:00,35.6,28.5,29.20,NW,315,2.9,4.0,75,0.00,,,0.08,VWS V14.01,2013-02-08 14:48:00,
2013-02-08 09:49:00,35.6,28.5,29.20,West,270,1.6,2.9,75,0.00,,,0.08,VWS V14.01,2013-02-08 14:49:00,
2013-02-08 09:50:00,35.6,28.8,29.20,SW,225,0.0,1.6,76,0.00,,,0.08,VWS V14.01,2013-02-08 14:50:00,
2013-02-08 09:51:00,36.1,16.9,28.91,WNW,292,6.3,6.3,45,0.00,,---,0.09,VWS V14.01,2013-02-08 14:51:00,
2013-02-08 09:52:00,35.6,28.8,29.20,WSW,248,2.5,4.3,76,0.00,,,0.08,VWS V14.01,2013-02-08 14:52:00,
2013-02-08 09:53:00,35.6,28.8,29.20,NW,315,1.3,4.9,76,0.00,,,0.08,VWS V14.01,2013-02-08 14:53:00,
2013-02-08 09:54:00,35.6,28.8,29.20,NNW,338,3.1,3.1,76,0.00,,,0.08,VWS V14.01,2013-02-08 14:54:00,
2013-02-08 09:55:00,35.6,28.8,29.20,NNW,338,3.1,3.1,76,0.00,,,0.08,VWS V14.01,2013-02-08 14:55:00,
2013-02-08 09:56:00,36.1,16.9,28.91,NW,315,8.3,10.5,45,0.00,,---,0.09,VWS V14.01,2013-02-08 14:56:00,
2013-02-08 09:57:00,35.6,28.5,29.20,West,270,0.0,2.9,75,0.00,,,0.08,VWS V14.01,2013-02-08 14:57:00,
2013-02-08 09:58:00,35.6,28.5,29.20,West,270,3.4,3.4,75,0.00,,,0.08,VWS V14.01,2013-02-08 14:58:00,
2013-02-08 09:59:00,35.6,28.8,29.20,WSW,248,2.7,4.7,76,0.00,,,0.08,VWS V14.01,2013-02-08 14:59:00,
2013-02-08 10:00:00,35.6,28.8,29.20,WSW,248,2.7,2.7,76,0.00,,,0.08,VWS V14.01,2013-02-08 15:00:00,
2013-02-08 10:01:00,36.1,16.4,28.91,WNW,292,3.6,3.6,44,0.00,,---,0.09,VWS V14.01,2013-02-08 15:01:00,
2013-02-08 10:02:00,35.6,28.5,29.20,WSW,248,2.7,2.7,75,0.00,,,0.08,VWS V14.01,2013-02-08 15:02:00,
2013-02-08 10:03:00,35.6,28.5,29.20,WSW,248,6.5,6.5,75,0.00,,,0.08,VWS V14.01,2013-02-08 15:03:00,
2013-02-08 10:04:00,35.6,28.1,29.20,WSW,248,6.5,6.5,74,0.00,,,0.08,VWS V14.01,2013-02-08 15:04:00,
2013-02-08 10:05:00,35.6,28.1,29.20,WNW,292,3.6,6.5,74,0.00,,,0.08,VWS V14.01,2013-02-08 15:05:00,
2013-02-08 10:06:00,36.1,16.9,28.91,NW,315,5.4,5.8,45,0.00,,---,0.09,VWS V14.01,2013-02-08 15:06:00,
2013-02-08 10:07:00,35.6,28.1,29.20,WNW,292,3.6,3.6,74,0.00,,,0.08,VWS V14.01,2013-02-08 15:07:00,
2013-02-08 10:08:00,35.6,28.1,29.20,WNW,292,3.6,3.6,74,0.00,,,0.08,VWS V14.01,2013-02-08 15:08:00,
2013-02-08 10:09:00,35.6,28.1,29.20,WNW,292,3.6,3.6,74,0.00,,,0.08,VWS V14.01,2013-02-08 15:09:00,
2013-02-08 10:10:00,35.4,28.3,29.20,West,270,7.2,8.7,75,0.00,,,0.08,VWS V14.01,2013-02-08 15:10:00,
2013-02-08 10:11:00,36.1,16.9,28.91,NW,315,4.0,5.4,45,0.00,,---,0.09,VWS V14.01,2013-02-08 15:11:00,
2013-02-08 10:12:00,35.2,28.5,29.20,West,270,7.2,7.2,76,0.00,,,0.08,VWS V14.01,2013-02-08 15:12:00,
2013-02-08 10:13:00,35.2,28.5,29.20,SW,225,4.7,7.2,76,0.00,,,0.08,VWS V14.01,2013-02-08 15:13:00,
2013-02-08 10:14:00,35.2,28.8,29.20,WSW,248,3.1,7.4,77,0.00,,,0.08,VWS V14.01,2013-02-08 15:14:00,
2013-02-08 10:15:00,35.2,28.8,29.23,WSW,248,3.1,3.1,77,0.00,,,0.08,VWS V14.01,2013-02-08 15:15:00,
2013-02-08 10:16:00,36.1,16.9,28.94,NW,315,6.3,6.3,45,0.00,,---,0.09,VWS V14.01,2013-02-08 15:16:00,
2013-02-08 10:17:00,35.2,28.8,29.23,WSW,248,3.1,3.1,77,0.00,,,0.08,VWS V14.01,2013-02-08 15:17:00,
2013-02-08 10:18:00,35.2,28.8,29.23,WSW,248,3.1,3.1,77,0.00,,,0.08,VWS V14.01,2013-02-08 15:18:00,
2013-02-08 10:19:00,35.2,28.8,29.23,NNW,338,2.7,3.1,77,0.00,,,0.08,VWS V14.01,2013-02-08 15:19:00,
2013-02-08 10:20:00,35.2,28.8,29.23,North,0,2.7,2.7,77,0.00,,,0.08,VWS V14.01,2013-02-08 15:20:00,
2013-02-08 10:21:00,36.1,16.9,28.94,West,270,8.1,8.1,45,0.00,,---,0.09,VWS V14.01,2013-02-08 15:21:00,
2013-02-08 10:22:00,35.2,28.8,29.23,NW,315,0.0,0.0,77,0.00,,,0.08,VWS V14.01,2013-02-08 15:22:00,
2013-02-08 10:23:00,35.2,28.8,29.23,NW,315,0.0,0.0,77,0.00,,,0.08,VWS V14.01,2013-02-08 15:23:00,
2013-02-08 10:24:00,35.2,28.8,29.23,NW,315,0.0,0.0,77,0.00,,,0.08,VWS V14.01,2013-02-08 15:24:00,
2013-02-08 10:25:00,35.2,28.8,29.23,NW,315,0.0,0.0,77,0.00,,,0.08,VWS V14.01,2013-02-08 15:25:00,
2013-02-08 10:26:00,36.1,17.4,28.94,NW,315,4.0,4.0,46,0.00,,---,0.09,VWS V14.01,2013-02-08 15:26:00,
2013-02-08 10:27:00,35.2,29.1,29.23,WSW,248,2.9,2.9,78,0.00,,,0.08,VWS V14.01,2013-02-08 15:27:00,
2013-02-08 10:28:00,35.2,29.1,29.23,WNW,292,7.2,7.2,78,0.00,,,0.08,VWS V14.01,2013-02-08 15:28:00,
2013-02-08 10:29:00,35.2,29.1,29.23,WNW,292,5.4,7.2,78,0.00,,,0.08,VWS V14.01,2013-02-08 15:29:00,
2013-02-08 10:30:00,35.1,28.9,29.23,NW,315,2.7,5.4,78,0.00,,,0.08,VWS V14.01,2013-02-08 15:30:00,
2013-02-08 10:31:00,36.1,17.4,28.94,WNW,292,3.6,4.0,46,0.00,,---,0.09,VWS V14.01,2013-02-08 15:31:00,
2013-02-08 10:32:00,35.1,28.6,29.23,West,270,3.4,3.4,77,0.00,,,0.08,VWS V14.01,2013-02-08 15:32:00,
2013-02-08 10:33:00,35.1,28.6,29.23,NNW,338,5.6,5.6,77,0.00,,,0.08,VWS V14.01,2013-02-08 15:33:00,
2013-02-08 10:34:00,35.1,28.6,29.23,WSW,248,2.0,5.6,77,0.00,,,0.08,VWS V14.01,2013-02-08 15:34:00,
2013-02-08 10:35:00,35.1,28.6,29.23,WNW,292,0.0,3.1,77,0.00,,,0.08,VWS V14.01,2013-02-08 15:35:00,
2013-02-08 10:36:00,36.1,17.4,28.94,WNW,292,5.4,5.4,46,0.00,,---,0.09,VWS V14.01,2013-02-08 15:36:00,
2013-02-08 10:37:00,35.1,28.6,29.23,WNW,292,2.9,3.8,77,0.00,,,0.08,VWS V14.01,2013-02-08 15:37:00,
2013-02-08 10:38:00,35.1,28.6,29.23,WNW,292,2.9,2.9,77,0.00,,,0.08,VWS V14.01,2013-02-08 15:38:00,
2013-02-08 10:39:00,35.1,28.6,29.23,NNW,338,2.9,4.0,77,0.00,,,0.08,VWS V14.01,2013-02-08 15:39:00,
2013-02-08 10:40:00,35.1,28.6,29.23,NW,315,1.6,3.4,77,0.00,,,0.08,VWS V14.01,2013-02-08 15:40:00,
2013-02-08 10:41:00,36.0,16.7,28.94,West,270,2.7,4.0,45,0.00,,---,0.09,VWS V14.01,2013-02-08 15:41:00,
2013-02-08 10:42:00,35.2,28.8,29.23,WNW,292,2.0,2.9,77,0.00,,,0.08,VWS V14.01,2013-02-08 15:42:00,
2013-02-08 10:43:00,35.2,28.8,29.23,NNW,338,3.1,3.6,77,0.00,,,0.08,VWS V14.01,2013-02-08 15:43:00,
2013-02-08 10:44:00,35.2,28.5,29.23,WSW,248,3.1,3.1,76,0.00,,,0.08,VWS V14.01,2013-02-08 15:44:00,
2013-02-08 10:45:00,35.2,28.5,29.23,WSW,248,3.1,3.1,76,0.00,,,0.08,VWS V14.01,2013-02-08 15:45:00,
2013-02-08 10:46:00,36.0,16.2,28.94,NW,315,7.2,7.2,44,0.00,,---,0.09,VWS V14.01,2013-02-08 15:46:00,
2013-02-08 10:47:00,35.2,28.5,29.23,WSW,248,2.2,2.2,76,0.00,,,0.08,VWS V14.01,2013-02-08 15:47:00,
2013-02-08 10:48:00,35.2,28.5,29.23,WSW,248,2.2,2.2,76,0.00,,,0.08,VWS V14.01,2013-02-08 15:48:00,
2013-02-08 10:49:00,35.4,28.6,29.23,WSW,248,2.7,2.7,76,0.00,,,0.08,VWS V14.01,2013-02-08 15:49:00,
2013-02-08 10:50:00,35.4,28.6,29.23,WNW,292,2.7,2.7,76,0.00,,,0.08,VWS V14.01,2013-02-08 15:50:00,
2013-02-08 10:51:00,36.0,16.2,28.94,NW,315,6.7,7.2,44,0.00,,---,0.09,VWS V14.01,2013-02-08 15:51:00,
2013-02-08 10:52:00,35.4,28.6,29.23,WNW,292,0.0,0.0,76,0.00,,,0.08,VWS V14.01,2013-02-08 15:52:00,
2013-02-08 10:53:00,35.4,28.3,29.23,NW,315,5.4,5.4,75,0.00,,,0.08,VWS V14.01,2013-02-08 15:53:00,
2013-02-08 10:54:00,35.4,28.3,29.23,West,270,0.0,5.4,75,0.00,,,0.08,VWS V14.01,2013-02-08 15:54:00,
2013-02-08 10:55:00,35.4,28.3,29.23,WNW,292,1.1,3.1,75,0.00,,,0.08,VWS V14.01,2013-02-08 15:55:00,
2013-02-08 10:56:00,36.0,15.1,28.94,NW,315,7.6,7.6,42,0.00,,---,0.09,VWS V14.01,2013-02-08 15:56:00,
2013-02-08 10:57:00,35.4,28.3,29.23,West,270,2.7,5.8,75,0.00,,,0.08,VWS V14.01,2013-02-08 15:57:00,
2013-02-08 10:58:00,35.4,28.3,29.23,West,270,2.7,2.7,75,0.00,,,0.08,VWS V14.01,2013-02-08 15:58:00,
2013-02-08 10:59:00,35.4,28.3,29.23,West,270,2.7,2.7,75,0.00,,,0.08,VWS V14.01,2013-02-08 15:59:00,
2013-02-08 11:00:00,35.6,28.5,29.26,NW,315,1.6,2.7,75,0.00,,,0.08,VWS V14.01,2013-02-08 16:00:00,
2013-02-08 11:01:00,36.0,15.1,28.94,NW,315,3.6,6.3,42,0.00,,---,0.09,VWS V14.01,2013-02-08 16:01:00,
2013-02-08 11:02:00,35.6,28.1,29.26,WNW,292,1.6,2.2,74,0.00,,,0.08,VWS V14.01,2013-02-08 16:02:00,
2013-02-08 11:03:00,35.6,28.1,29.26,WNW,292,1.6,1.6,74,0.00,,,0.08,VWS V14.01,2013-02-08 16:03:00,
2013-02-08 11:04:00,35.6,28.1,29.26,WNW,292,1.6,1.6,74,0.00,,,0.08,VWS V14.01,2013-02-08 16:04:00,
2013-02-08 11:05:00,35.6,27.8,29.26,WNW,292,3.1,3.1,73,0.00,,,0.08,VWS V14.01,2013-02-08 16:05:00,
2013-02-08 11:06:00,35.8,14.9,28.94,NW,315,5.4,7.6,42,0.00,,---,0.09,VWS V14.01,2013-02-08 16:06:00,
2013-02-08 11:07:00,35.6,27.8,29.26,WNW,292,3.8,3.8,73,0.00,,,0.08,VWS V14.01,2013-02-08 16:07:00,
2013-02-08 11:08:00,35.6,27.8,29.26,West,270,2.0,3.8,73,0.00,,,0.08,VWS V14.01,2013-02-08 16:08:00,
2013-02-08 11:09:00,35.8,28.0,29.26,WNW,292,1.3,2.0,73,0.00,,,0.08,VWS V14.01,2013-02-08 16:09:00,
2013-02-08 11:10:00,35.8,28.0,29.26,SW,225,2.9,3.6,73,0.00,,,0.08,VWS V14.01,2013-02-08 16:10:00,
2013-02-08 11:11:00,36.0,15.1,28.94,NW,315,6.7,6.7,42,0.00,,---,0.09,VWS V14.01,2013-02-08 16:11:00,
2013-02-08 11:12:00,35.8,28.0,29.26,WSW,248,1.1,1.1,73,0.00,,,0.08,VWS V14.01,2013-02-08 16:12:00,
2013-02-08 11:13:00,35.8,28.0,29.26,WSW,248,1.1,1.1,73,0.00,,,0.08,VWS V14.01,2013-02-08 16:13:00,
2013-02-08 11:14:00,36.0,28.2,29.26,SW,225,0.0,3.6,73,0.00,,,0.08,VWS V14.01,2013-02-08 16:14:00,
2013-02-08 11:15:00,36.0,28.2,29.26,West,270,3.1,3.1,73,0.00,,,0.08,VWS V14.01,2013-02-08 16:15:00,
2013-02-08 11:16:00,35.8,14.9,28.97,West,270,8.1,8.3,42,0.00,,---,0.09,VWS V14.01,2013-02-08 16:16:00,
2013-02-08 11:17:00,35.8,28.0,29.26,West,270,3.1,3.1,73,0.00,,,0.08,VWS V14.01,2013-02-08 16:17:00,
2013-02-08 11:18:00,35.8,27.6,29.26,WSW,248,4.3,4.3,72,0.00,,,0.08,VWS V14.01,2013-02-08 16:18:00,
2013-02-08 11:19:00,35.8,27.6,29.26,WSW,248,3.1,4.3,72,0.00,,,0.08,VWS V14.01,2013-02-08 16:19:00,
2013-02-08 11:20:00,35.8,27.6,29.26,SW,225,0.0,3.1,72,0.00,,,0.08,VWS V14.01,2013-02-08 16:20:00,
2013-02-08 11:21:00,36.0,15.6,28.97,WNW,292,2.7,2.7,43,0.00,,---,0.09,VWS V14.01,2013-02-08 16:21:00,
2013-02-08 11:22:00,35.8,28.0,29.26,SW,225,0.0,0.0,73,0.00,,,0.08,VWS V14.01,2013-02-08 16:22:00,
2013-02-08 11:23:00,35.8,28.0,29.26,SW,225,0.0,0.0,73,0.00,,,0.08,VWS V14.01,2013-02-08 16:23:00,
2013-02-08 11:24:00,35.8,28.0,29.26,WSW,248,0.0,0.0,73,0.00,,,0.08,VWS V14.01,2013-02-08 16:24:00,
2013-02-08 11:25:00,35.8,28.0,29.26,WSW,248,0.0,0.0,73,0.00,,,0.08,VWS V14.01,2013-02-08 16:25:00,
2013-02-08 11:26:00,35.8,14.9,28.97,NNW,338,7.2,7.2,42,0.00,,---,0.09,VWS V14.01,2013-02-08 16:26:00,
2013-02-08 11:27:00,35.8,28.0,29.26,WSW,248,2.9,2.9,73,0.00,,,0.08,VWS V14.01,2013-02-08 16:27:00,
2013-02-08 11:28:00,35.8,28.0,29.26,SW,225,2.9,2.9,73,0.00,,,0.08,VWS V14.01,2013-02-08 16:28:00,
2013-02-08 11:29:00,35.8,28.0,29.26,SW,225,2.9,2.9,73,0.00,,,0.08,VWS V14.01,2013-02-08 16:29:00,
2013-02-08 11:30:00,35.8,28.0,29.26,SW,225,2.9,2.9,73,0.00,,,0.08,VWS V14.01,2013-02-08 16:30:00,
2013-02-08 11:31:00,35.8,15.5,28.97,NW,315,8.3,8.3,43,0.00,,---,0.09,VWS V14.01,2013-02-08 16:31:00,
2013-02-08 11:32:00,35.8,27.6,29.26,SW,225,0.0,2.9,72,0.00,,,0.08,VWS V14.01,2013-02-08 16:32:00,
2013-02-08 11:33:00,35.8,27.6,29.26,SW,225,0.0,0.0,72,0.00,,,0.08,VWS V14.01,2013-02-08 16:33:00,
2013-02-08 11:34:00,35.8,27.6,29.26,SW,225,0.0,0.0,72,0.00,,,0.08,VWS V14.01,2013-02-08 16:34:00,
2013-02-08 11:35:00,35.8,27.6,29.26,SW,225,0.0,0.0,72,0.00,,,0.08,VWS V14.01,2013-02-08 16:35:00,
2013-02-08 11:36:00,35.8,14.9,28.97,NW,315,3.6,4.0,42,0.00,,---,0.09,VWS V14.01,2013-02-08 16:36:00,
2013-02-08 11:37:00,35.6,27.1,29.26,SW,225,0.0,0.0,71,0.00,,,0.08,VWS V14.01,2013-02-08 16:37:00,
2013-02-08 11:38:00,35.6,27.1,29.26,SW,225,0.0,0.0,71,0.00,,,0.08,VWS V14.01,2013-02-08 16:38:00,
2013-02-08 11:39:00,35.6,27.1,29.26,WSW,248,4.9,4.9,71,0.00,,,0.08,VWS V14.01,2013-02-08 16:39:00,
2013-02-08 11:40:00,35.6,27.1,29.26,WSW,248,4.9,4.9,71,0.00,,,0.08,VWS V14.01,2013-02-08 16:40:00,
2013-02-08 11:41:00,35.8,14.9,28.97,NW,315,4.9,8.7,42,0.00,,---,0.09,VWS V14.01,2013-02-08 16:41:00,
2013-02-08 11:42:00,35.6,27.1,29.26,WSW,248,4.9,4.9,71,0.00,,,0.08,VWS V14.01,2013-02-08 16:42:00,
2013-02-08 11:43:00,35.6,27.1,29.26,WSW,248,4.9,4.9,71,0.00,,,0.08,VWS V14.01,2013-02-08 16:43:00,
2013-02-08 11:44:00,35.6,27.1,29.26,WSW,248,4.9,4.9,71,0.00,,,0.08,VWS V14.01,2013-02-08 16:44:00,
2013-02-08 11:45:00,35.6,27.1,29.26,WSW,248,4.9,4.9,71,0.00,,,0.08,VWS V14.01,2013-02-08 16:45:00,
2013-02-08 11:46:00,36.0,14.6,28.97,NW,315,5.8,8.1,41,0.00,,---,0.09,VWS V14.01,2013-02-08 16:46:00,
2013-02-08 11:47:00,35.6,26.8,29.26,North,0,7.4,7.4,70,0.00,,,0.08,VWS V14.01,2013-02-08 16:47:00,
2013-02-08 11:48:00,35.6,26.8,29.26,North,0,7.4,7.4,70,0.00,,,0.08,VWS V14.01,2013-02-08 16:48:00,
2013-02-08 11:49:00,35.6,26.8,29.26,North,0,7.4,7.4,70,0.00,,,0.08,VWS V14.01,2013-02-08 16:49:00,
2013-02-08 11:50:00,35.6,26.8,29.26,North,0,5.6,7.4,70,0.00,,,0.08,VWS V14.01,2013-02-08 16:50:00,
2013-02-08 11:51:00,35.8,14.4,28.97,NW,315,2.7,4.0,41,0.00,,---,0.09,VWS V14.01,2013-02-08 16:51:00,
2013-02-08 11:52:00,35.6,26.8,29.26,WNW,292,4.9,4.9,70,0.00,,,0.08,VWS V14.01,2013-02-08 16:52:00,
2013-02-08 11:53:00,35.6,26.8,29.26,WNW,292,4.9,4.9,70,0.00,,,0.08,VWS V14.01,2013-02-08 16:53:00,
2013-02-08 11:54:00,35.6,26.8,29.26,WNW,292,4.9,4.9,70,0.00,,,0.08,VWS V14.01,2013-02-08 16:54:00,
2013-02-08 11:55:00,35.6,26.8,29.26,NW,315,0.0,4.9,70,0.00,,,0.08,VWS V14.01,2013-02-08 16:55:00,
2013-02-08 11:56:00,35.8,14.4,28.97,WNW,292,4.9,4.9,41,0.00,,---,0.09,VWS V14.01,2013-02-08 16:56:00,
2013-02-08 11:57:00,35.6,27.1,29.26,NW,315,0.0,0.0,71,0.00,,,0.08,VWS V14.01,2013-02-08 16:57:00,
2013-02-08 11:58:00,35.6,27.1,29.26,NNW,338,3.8,3.8,71,0.00,,,0.08,VWS V14.01,2013-02-08 16:58:00,
2013-02-08 11:59:00,35.6,27.1,29.26,NNW,338,3.8,3.8,71,0.00,,,0.08,VWS V14.01,2013-02-08 16:59:00,
2013-02-08 12:00:00,35.6,27.1,29.26,NNW,338,3.8,3.8,71,0.00,,,0.08,VWS V14.01,2013-02-08 17:00:00,
2013-02-08 12:01:00,35.8,14.4,28.97,NW,315,7.6,10.5,41,0.00,,---,0.09,VWS V14.01,2013-02-08 17:01:00,
2013-02-08 12:02:00,35.6,27.1,29.26,NNW,338,3.8,3.8,71,0.00,,,0.08,VWS V14.01,2013-02-08 17:02:00,
2013-02-08 12:03:00,35.6,27.1,29.26,NNW,338,3.8,3.8,71,0.00,,,0.08,VWS V14.01,2013-02-08 17:03:00,
2013-02-08 12:04:00,35.6,26.8,29.26,NNW,338,3.8,3.8,70,0.00,,,0.08,VWS V14.01,2013-02-08 17:04:00,
2013-02-08 12:05:00,35.4,26.6,29.26,NNW,338,3.8,3.8,70,0.00,,,0.08,VWS V14.01,2013-02-08 17:05:00,
2013-02-08 12:06:00,35.8,14.4,28.97,NW,315,8.3,8.3,41,0.00,,---,0.09,VWS V14.01,2013-02-08 17:06:00,
2013-02-08 12:07:00,35.4,26.6,29.26,NNW,338,3.8,3.8,70,0.00,,,0.08,VWS V14.01,2013-02-08 17:07:00,
2013-02-08 12:08:00,35.4,26.6,29.26,NNW,338,3.8,3.8,70,0.00,,,0.08,VWS V14.01,2013-02-08 17:08:00,
2013-02-08 12:09:00,35.4,26.6,29.26,SSW,202,2.9,3.8,70,0.00,,,0.08,VWS V14.01,2013-02-08 17:09:00,
2013-02-08 12:10:00,35.4,26.6,29.26,SSW,202,2.9,2.9,70,0.00,,,0.08,VWS V14.01,2013-02-08 17:10:00,
2013-02-08 12:11:00,35.6,14.2,28.97,NW,315,11.0,11.0,41,0.00,,---,0.09,VWS V14.01,2013-02-08 17:11:00,
2013-02-08 12:12:00,35.4,26.6,29.26,SSW,202,2.9,2.9,70,0.00,,,0.08,VWS V14.01,2013-02-08 17:12:00,
2013-02-08 12:13:00,35.4,26.6,29.26,SSW,202,2.9,2.9,70,0.00,,,0.08,VWS V14.01,2013-02-08 17:13:00,
2013-02-08 12:14:00,35.4,26.6,29.26,SSW,202,2.9,2.9,70,0.00,,,0.08,VWS V14.01,2013-02-08 17:14:00,
2013-02-08 12:15:00,35.4,26.6,29.26,SSW,202,2.9,2.9,70,0.00,,,0.08,VWS V14.01,2013-02-08 17:15:00,
2013-02-08 12:16:00,35.6,14.2,28.97,NW,315,4.5,7.6,41,0.00,,---,0.09,VWS V14.01,2013-02-08 17:16:00,
2013-02-08 12:17:00,35.4,26.3,29.26,SSW,202,2.9,2.9,69,0.00,,,0.08,VWS V14.01,2013-02-08 17:17:00,
2013-02-08 12:18:00,35.4,26.3,29.26,SSW,202,2.9,2.9,69,0.00,,,0.08,VWS V14.01,2013-02-08 17:18:00,
2013-02-08 12:19:00,35.4,26.3,29.26,SSW,202,2.9,2.9,69,0.00,,,0.08,VWS V14.01,2013-02-08 17:19:00,
2013-02-08 12:20:00,35.4,26.6,29.26,NNW,338,5.6,5.6,70,0.00,,,0.08,VWS V14.01,2013-02-08 17:20:00,
2013-02-08 12:21:00,35.6,14.2,28.97,NNW,338,4.0,4.0,41,0.00,,---,0.09,VWS V14.01,2013-02-08 17:21:00,
2013-02-08 12:22:00,35.4,26.3,29.26,NNW,338,5.6,5.6,69,0.00,,,0.08,VWS V14.01,2013-02-08 17:22:00,
2013-02-08 12:23:00,35.4,26.3,29.26,NNW,338,5.6,5.6,69,0.00,,,0.08,VWS V14.01,2013-02-08 17:23:00,
2013-02-08 12:24:00,35.4,26.3,29.26,NNW,338,5.6,5.6,69,0.00,,,0.08,VWS V14.01,2013-02-08 17:24:00,
2013-02-08 12:25:00,35.4,26.3,29.26,NNW,338,5.6,5.6,69,0.00,,,0.08,VWS V14.01,2013-02-08 17:25:00,
2013-02-08 12:26:00,35.6,14.2,28.97,NW,315,4.0,4.0,41,0.00,,---,0.09,VWS V14.01,2013-02-08 17:26:00,
2013-02-08 12:27:00,35.4,26.3,29.26,NNW,338,5.6,5.6,69,0.00,,,0.08,VWS V14.01,2013-02-08 17:27:00,
2013-02-08 12:28:00,35.4,26.3,29.26,NNW,338,5.6,5.6,69,0.00,,,0.08,VWS V14.01,2013-02-08 17:28:00,
2013-02-08 12:29:00,35.4,26.3,29.26,NNW,338,5.6,5.6,69,0.00,,,0.08,VWS V14.01,2013-02-08 17:29:00,
2013-02-08 12:30:00,35.6,26.5,29.26,NNW,338,5.6,5.6,69,0.00,,,0.08,VWS V14.01,2013-02-08 17:30:00,
2013-02-08 12:31:00,35.6,14.2,28.97,North,0,6.7,6.7,41,0.00,,---,0.09,VWS V14.01,2013-02-08 17:31:00,
2013-02-08 12:32:00,35.6,26.5,29.23,NNW,338,5.6,5.6,69,0.00,,,0.08,VWS V14.01,2013-02-08 17:32:00,
2013-02-08 12:33:00,35.6,26.5,29.23,NNW,338,5.6,5.6,69,0.00,,,0.08,VWS V14.01,2013-02-08 17:33:00,
2013-02-08 12:34:00,35.8,26.6,29.23,NNW,338,5.6,5.6,69,0.00,,,0.08,VWS V14.01,2013-02-08 17:34:00,
2013-02-08 12:35:00,35.8,26.6,29.23,NNW,338,5.6,5.6,69,0.00,,,0.08,VWS V14.01,2013-02-08 17:35:00,
2013-02-08 12:36:00,35.6,14.2,28.97,West,270,5.4,5.8,41,0.00,,---,0.09,VWS V14.01,2013-02-08 17:36:00,
2013-02-08 12:37:00,35.6,26.1,29.23,NNW,338,5.6,5.6,68,0.00,,,0.08,VWS V14.01,2013-02-08 17:37:00,
2013-02-08 12:38:00,35.6,26.1,29.23,NNW,338,5.6,5.6,68,0.00,,,0.08,VWS V14.01,2013-02-08 17:38:00,
2013-02-08 12:39:00,35.6,26.1,29.23,NNW,338,5.6,5.6,68,0.00,,,0.08,VWS V14.01,2013-02-08 17:39:00,
2013-02-08 12:40:00,35.6,26.1,29.23,NNW,338,5.6,5.6,68,0.00,,,0.08,VWS V14.01,2013-02-08 17:40:00,
2013-02-08 12:41:00,35.6,14.2,28.97,NW,315,9.2,9.2,41,0.00,,---,0.09,VWS V14.01,2013-02-08 17:41:00,
2013-02-08 12:42:00,35.6,25.7,29.23,NNW,338,5.6,5.6,67,0.00,,,0.08,VWS V14.01,2013-02-08 17:42:00,
2013-02-08 12:43:00,35.6,25.7,29.23,NNW,338,5.6,5.6,67,0.00,,,0.08,VWS V14.01,2013-02-08 17:43:00,
2013-02-08 12:44:00,35.6,25.7,29.23,NNW,338,5.6,5.6,67,0.00,,,0.08,VWS V14.01,2013-02-08 17:44:00,
2013-02-08 12:45:00,35.6,25.7,29.23,NNW,338,5.6,5.6,67,0.00,,,0.08,VWS V14.01,2013-02-08 17:45:00,
2013-02-08 12:46:00,35.6,14.2,28.97,NW,315,7.6,7.6,41,0.00,,---,0.09,VWS V14.01,2013-02-08 17:46:00,
2013-02-08 12:47:00,35.6,25.7,29.26,NNW,338,5.6,5.6,67,0.00,,,0.08,VWS V14.01,2013-02-08 17:47:00,
2013-02-08 12:48:00,35.6,25.7,29.26,NNW,338,5.6,5.6,67,0.00,,,0.08,VWS V14.01,2013-02-08 17:48:00,
2013-02-08 12:49:00,35.6,25.7,29.26,NNW,338,5.6,5.6,67,0.00,,,0.08,VWS V14.01,2013-02-08 17:49:00,
2013-02-08 12:50:00,35.6,25.7,29.26,NNW,338,5.6,5.6,67,0.00,,,0.08,VWS V14.01,2013-02-08 17:50:00,
2013-02-08 12:51:00,35.6,14.2,28.97,NW,315,10.5,10.5,41,0.00,,---,0.09,VWS V14.01,2013-02-08 17:51:00,
2013-02-08 12:52:00,35.6,25.7,29.26,NW,315,5.4,6.0,67,0.00,,,0.08,VWS V14.01,2013-02-08 17:52:00,
2013-02-08 12:53:00,35.6,25.4,29.26,North,0,4.3,5.4,66,0.00,,,0.08,VWS V14.01,2013-02-08 17:53:00,
2013-02-08 12:54:00,35.6,25.4,29.26,WNW,292,3.8,4.3,66,0.00,,,0.08,VWS V14.01,2013-02-08 17:54:00,
2013-02-08 12:55:00,35.6,25.4,29.26,WNW,292,2.9,7.4,66,0.00,,,0.08,VWS V14.01,2013-02-08 17:55:00,
2013-02-08 12:56:00,35.6,14.2,28.97,NW,315,5.4,5.4,41,0.00,,---,0.09,VWS V14.01,2013-02-08 17:56:00,
2013-02-08 12:57:00,35.6,25.4,29.26,West,270,0.0,3.4,66,0.00,,,0.08,VWS V14.01,2013-02-08 17:57:00,
2013-02-08 12:58:00,35.6,25.4,29.26,NW,315,2.9,3.6,66,0.00,,,0.08,VWS V14.01,2013-02-08 17:58:00,
2013-02-08 12:59:00,35.6,25.4,29.26,WNW,292,2.9,2.9,66,0.00,,,0.08,VWS V14.01,2013-02-08 17:59:00,
2013-02-08 13:00:00,35.6,25.4,29.26,NNW,338,2.5,2.9,66,0.00,,,0.08,VWS V14.01,2013-02-08 18:00:00,
2013-02-08 13:01:00,35.6,14.2,28.97,West,270,6.7,6.7,41,0.00,,---,0.09,VWS V14.01,2013-02-08 18:01:00,
2013-02-08 13:02:00,35.8,25.9,29.26,West,270,0.0,0.0,67,0.00,,,0.08,VWS V14.01,2013-02-08 18:02:00,
2013-02-08 13:03:00,36.0,26.1,29.26,NNW,338,0.9,2.2,67,0.00,,,0.08,VWS V14.01,2013-02-08 18:03:00,
2013-02-08 13:04:00,35.8,25.5,29.26,NW,315,2.7,8.7,66,0.00,,,0.08,VWS V14.01,2013-02-08 18:04:00,
2013-02-08 13:05:00,35.8,25.5,29.26,WNW,292,5.6,6.5,66,0.00,,,0.08,VWS V14.01,2013-02-08 18:05:00,
2013-02-08 13:06:00,35.6,13.7,28.97,WNW,292,10.1,10.1,40,0.00,,---,0.09,VWS V14.01,2013-02-08 18:06:00,
2013-02-08 13:07:00,35.8,24.8,29.26,WNW,292,4.9,4.9,64,0.00,,,0.08,VWS V14.01,2013-02-08 18:07:00,
2013-02-08 13:08:00,35.8,24.8,29.26,WNW,292,4.9,4.9,64,0.00,,,0.08,VWS V14.01,2013-02-08 18:08:00,
2013-02-08 13:09:00,35.8,24.8,29.26,WNW,292,4.9,4.9,64,0.00,,,0.08,VWS V14.01,2013-02-08 18:09:00,
2013-02-08 13:10:00,36.0,25.0,29.26,WNW,292,4.9,4.9,64,0.00,,,0.08,VWS V14.01,2013-02-08 18:10:00,
2013-02-08 13:11:00,35.6,13.7,28.97,NW,315,3.6,5.4,40,0.00,,---,0.09,VWS V14.01,2013-02-08 18:11:00,
2013-02-08 13:12:00,35.8,24.8,29.26,WNW,292,4.9,4.9,64,0.00,,,0.08,VWS V14.01,2013-02-08 18:12:00,
2013-02-08 13:13:00,35.8,24.8,29.26,NW,315,4.0,4.9,64,0.00,,,0.08,VWS V14.01,2013-02-08 18:13:00,
2013-02-08 13:14:00,36.0,25.4,29.26,NW,315,4.0,4.0,65,0.00,,,0.08,VWS V14.01,2013-02-08 18:14:00,
2013-02-08 13:15:00,36.0,25.0,29.26,NW,315,4.0,4.0,64,0.00,,,0.08,VWS V14.01,2013-02-08 18:15:00,
2013-02-08 13:16:00,35.6,13.7,28.97,NW,315,3.1,3.6,40,0.00,,---,0.09,VWS V14.01,2013-02-08 18:16:00,
2013-02-08 13:17:00,36.0,25.0,29.26,NW,315,4.0,4.0,64,0.00,,,0.08,VWS V14.01,2013-02-08 18:17:00,
2013-02-08 13:18:00,36.1,25.1,29.26,NW,315,4.0,4.0,64,0.00,,,0.08,VWS V14.01,2013-02-08 18:18:00,
2013-02-08 13:19:00,36.1,25.1,29.26,NW,315,4.0,4.0,64,0.00,,,0.08,VWS V14.01,2013-02-08 18:19:00,
2013-02-08 13:20:00,36.1,25.1,29.26,NW,315,4.0,4.0,64,0.00,,,0.08,VWS V14.01,2013-02-08 18:20:00,
2013-02-08 13:21:00,35.6,13.7,28.97,NW,315,5.8,5.8,40,0.00,,---,0.09,VWS V14.01,2013-02-08 18:21:00,
2013-02-08 13:22:00,36.3,25.7,29.26,NW,315,4.0,4.0,65,0.00,,,0.08,VWS V14.01,2013-02-08 18:22:00,
2013-02-08 13:23:00,36.3,25.3,29.26,NW,315,4.0,4.0,64,0.00,,,0.08,VWS V14.01,2013-02-08 18:23:00,
2013-02-08 13:24:00,36.3,25.3,29.26,NW,315,4.0,4.0,64,0.00,,,0.08,VWS V14.01,2013-02-08 18:24:00,
2013-02-08 13:25:00,36.3,25.0,29.26,NW,315,4.0,4.0,63,0.00,,,0.08,VWS V14.01,2013-02-08 18:25:00,
2013-02-08 13:26:00,35.6,13.7,28.97,NW,315,5.4,5.4,40,0.00,,---,0.09,VWS V14.01,2013-02-08 18:26:00,
2013-02-08 13:27:00,36.3,25.0,29.26,NW,315,4.0,4.0,63,0.00,,,0.08,VWS V14.01,2013-02-08 18:27:00,
2013-02-08 13:28:00,36.3,25.0,29.26,NW,315,4.0,4.0,63,0.00,,,0.08,VWS V14.01,2013-02-08 18:28:00,
2013-02-08 13:29:00,36.3,24.6,29.26,NW,315,4.0,4.0,62,0.00,,,0.08,VWS V14.01,2013-02-08 18:29:00,
2013-02-08 13:30:00,36.3,24.6,29.29,NW,315,4.0,4.0,62,0.00,,,0.08,VWS V14.01,2013-02-08 18:30:00,
2013-02-08 13:31:00,35.6,13.7,28.97,NW,315,3.1,3.1,40,0.00,,---,0.09,VWS V14.01,2013-02-08 18:31:00,
2013-02-08 13:32:00,36.3,24.6,29.29,NW,315,4.0,4.0,62,0.00,,,0.08,VWS V14.01,2013-02-08 18:32:00,
2013-02-08 13:36:00,35.6,14.2,28.97,NW,315,6.7,6.7,41,0.00,,---,0.09,VWS V14.01,2013-02-08 18:36:00,
2013-02-08 13:37:00,36.3,24.6,29.29,NW,315,4.0,4.0,62,0.00,,,0.08,VWS V14.01,2013-02-08 18:37:00,
2013-02-08 13:38:00,36.1,24.0,29.29,NW,315,4.0,4.0,61,0.00,,,0.08,VWS V14.01,2013-02-08 18:38:00,
2013-02-08 13:39:00,36.0,23.4,29.29,NW,315,4.0,4.0,60,0.00,,,0.08,VWS V14.01,2013-02-08 18:39:00,
2013-02-08 13:40:00,36.0,23.4,29.29,NW,315,4.0,4.0,60,0.00,,,0.08,VWS V14.01,2013-02-08 18:40:00,
2013-02-08 13:41:00,35.6,14.2,28.97,West,270,3.1,3.6,41,0.00,,---,0.09,VWS V14.01,2013-02-08 18:41:00,
2013-02-08 13:42:00,36.0,23.4,29.29,NW,315,4.0,4.0,60,0.00,,,0.08,VWS V14.01,2013-02-08 18:42:00,
2013-02-08 13:43:00,36.1,24.0,29.29,NW,315,4.0,4.0,61,0.00,,,0.08,VWS V14.01,2013-02-08 18:43:00,
2013-02-08 13:44:00,36.1,24.0,29.29,NW,315,4.0,4.0,61,0.00,,,0.08,VWS V14.01,2013-02-08 18:44:00,
2013-02-08 13:45:00,36.1,24.0,29.29,NW,315,4.0,4.0,61,0.00,,,0.08,VWS V14.01,2013-02-08 18:45:00,
2013-02-08 13:46:00,35.8,13.8,29.00,NW,315,8.3,8.3,40,0.00,,---,0.09,VWS V14.01,2013-02-08 18:46:00,
2013-02-08 13:47:00,36.1,24.0,29.29,NW,315,4.0,4.0,61,0.00,,,0.08,VWS V14.01,2013-02-08 18:47:00,
2013-02-08 13:48:00,36.1,24.0,29.29,NW,315,4.0,4.0,61,0.00,,,0.08,VWS V14.01,2013-02-08 18:48:00,
2013-02-08 13:49:00,36.1,24.0,29.29,NW,315,4.0,4.0,61,0.00,,,0.08,VWS V14.01,2013-02-08 18:49:00,
2013-02-08 13:50:00,36.1,23.6,29.29,NW,315,4.0,4.0,60,0.00,,,0.08,VWS V14.01,2013-02-08 18:50:00,
2013-02-08 13:51:00,35.6,13.7,29.00,West,270,8.7,8.7,40,0.00,,---,0.09,VWS V14.01,2013-02-08 18:51:00,
2013-02-08 13:52:00,36.1,23.6,29.29,NW,315,4.0,4.0,60,0.00,,,0.08,VWS V14.01,2013-02-08 18:52:00,
2013-02-08 13:53:00,36.1,23.2,29.29,NW,315,4.0,4.0,59,0.00,,,0.08,VWS V14.01,2013-02-08 18:53:00,
2013-02-08 13:54:00,36.1,23.2,29.29,NW,315,4.0,4.0,59,0.00,,,0.08,VWS V14.01,2013-02-08 18:54:00,
2013-02-08 13:55:00,36.1,23.6,29.29,NW,315,4.0,4.0,60,0.00,,,0.08,VWS V14.01,2013-02-08 18:55:00,
2013-02-08 13:56:00,35.6,13.7,29.00,NNW,338,3.1,8.1,40,0.00,,---,0.09,VWS V14.01,2013-02-08 18:56:00,
2013-02-08 13:57:00,36.0,23.0,29.29,NW,315,4.0,4.0,59,0.00,,,0.08,VWS V14.01,2013-02-08 18:57:00,
2013-02-08 13:58:00,36.0,23.0,29.29,NW,315,4.0,4.0,59,0.00,,,0.08,VWS V14.01,2013-02-08 18:58:00,
2013-02-08 13:59:00,36.0,23.0,29.29,NW,315,4.0,4.0,59,0.00,,,0.08,VWS V14.01,2013-02-08 18:59:00,
2013-02-08 14:00:00,36.0,23.0,29.26,North,0,2.2,4.0,59,0.00,,,0.08,VWS V14.01,2013-02-08 19:00:00,
2013-02-08 14:01:00,35.8,13.8,29.00,NW,315,2.7,4.0,40,0.00,,---,0.09,VWS V14.01,2013-02-08 19:01:00,
2013-02-08 14:02:00,36.0,23.4,29.26,North,0,2.2,2.2,60,0.00,,,0.08,VWS V14.01,2013-02-08 19:02:00,
2013-02-08 14:03:00,36.0,23.4,29.26,North,0,2.2,2.2,60,0.00,,,0.08,VWS V14.01,2013-02-08 19:03:00,
2013-02-08 14:04:00,36.0,23.4,29.26,North,0,2.2,2.2,60,0.00,,,0.08,VWS V14.01,2013-02-08 19:04:00,
2013-02-08 14:05:00,36.1,23.6,29.26,North,0,2.2,2.2,60,0.00,,,0.08,VWS V14.01,2013-02-08 19:05:00,
2013-02-08 14:06:00,35.8,13.8,29.00,WNW,292,4.5,5.4,40,0.00,,---,0.09,VWS V14.01,2013-02-08 19:06:00,
2013-02-08 14:07:00,36.1,23.6,29.26,North,0,2.2,2.2,60,0.00,,,0.08,VWS V14.01,2013-02-08 19:07:00,
2013-02-08 14:08:00,36.1,24.0,29.26,North,0,2.2,2.2,61,0.00,,,0.08,VWS V14.01,2013-02-08 19:08:00,
2013-02-08 14:09:00,36.1,23.6,29.26,North,0,2.2,2.2,60,0.00,,,0.08,VWS V14.01,2013-02-08 19:09:00,
2013-02-08 14:10:00,36.1,23.6,29.26,North,0,2.2,2.2,60,0.00,,,0.08,VWS V14.01,2013-02-08 19:10:00,
2013-02-08 14:11:00,35.8,13.8,29.00,NW,315,5.8,5.8,40,0.00,,---,0.09,VWS V14.01,2013-02-08 19:11:00,
2013-02-08 14:12:00,36.1,23.6,29.26,North,0,2.2,2.2,60,0.00,,,0.08,VWS V14.01,2013-02-08 19:12:00,
2013-02-08 14:13:00,36.0,23.4,29.26,North,0,2.2,2.2,60,0.00,,,0.08,VWS V14.01,2013-02-08 19:13:00,
2013-02-08 14:14:00,36.0,23.0,29.26,North,0,2.2,2.2,59,0.00,,,0.08,VWS V14.01,2013-02-08 19:14:00,
2013-02-08 14:15:00,35.8,22.5,29.26,North,0,2.2,2.2,58,0.00,,,0.08,VWS V14.01,2013-02-08 19:15:00,
2013-02-08 14:16:00,35.6,13.7,29.00,NW,315,7.2,8.3,40,0.00,,---,0.09,VWS V14.01,2013-02-08 19:16:00,
2013-02-08 14:17:00,36.0,23.4,29.26,North,0,2.2,2.2,60,0.00,,,0.08,VWS V14.01,2013-02-08 19:17:00,
2013-02-08 14:18:00,36.0,23.0,29.26,North,0,2.2,2.2,59,0.00,,,0.08,VWS V14.01,2013-02-08 19:18:00,
2013-02-08 14:19:00,36.0,23.0,29.26,North,0,2.2,2.2,59,0.00,,,0.08,VWS V14.01,2013-02-08 19:19:00,
2013-02-08 14:20:00,36.0,23.0,29.26,North,0,2.2,2.2,59,0.00,,,0.08,VWS V14.01,2013-02-08 19:20:00,
2013-02-08 14:21:00,35.6,14.2,29.00,NW,315,3.1,3.1,41,0.00,,---,0.09,VWS V14.01,2013-02-08 19:21:00,
2013-02-08 14:22:00,36.3,23.8,29.26,North,0,2.2,2.2,60,0.00,,,0.08,VWS V14.01,2013-02-08 19:22:00,
2013-02-08 14:23:00,36.3,24.2,29.26,North,0,2.2,2.2,61,0.00,,,0.08,VWS V14.01,2013-02-08 19:23:00,
2013-02-08 14:24:00,36.1,23.6,29.26,North,0,2.2,2.2,60,0.00,,,0.08,VWS V14.01,2013-02-08 19:24:00,
2013-02-08 14:25:00,36.1,23.6,29.26,North,0,2.2,2.2,60,0.00,,,0.08,VWS V14.01,2013-02-08 19:25:00,
2013-02-08 14:26:00,35.6,14.2,29.00,NW,315,5.4,6.3,41,0.00,,---,0.09,VWS V14.01,2013-02-08 19:26:00,
2013-02-08 14:27:00,36.1,23.2,29.26,North,0,2.2,2.2,59,0.00,,,0.08,VWS V14.01,2013-02-08 19:27:00,
2013-02-08 14:28:00,36.1,23.2,29.26,North,0,2.2,2.2,59,0.00,,,0.08,VWS V14.01,2013-02-08 19:28:00,
2013-02-08 14:29:00,36.0,23.0,29.26,North,0,2.2,2.2,59,0.00,,,0.08,VWS V14.01,2013-02-08 19:29:00,
2013-02-08 14:30:00,36.0,23.4,29.26,North,0,2.2,2.2,60,0.00,,,0.08,VWS V14.01,2013-02-08 19:30:00,
2013-02-08 14:31:00,35.8,14.4,29.00,WNW,292,3.6,5.4,41,0.00,,---,0.09,VWS V14.01,2013-02-08 19:31:00,
2013-02-08 14:32:00,35.8,22.9,29.26,North,0,2.2,2.2,59,0.00,,,0.08,VWS V14.01,2013-02-08 19:32:00,
2013-02-08 14:33:00,35.8,22.9,29.26,North,0,2.2,2.2,59,0.00,,,0.08,VWS V14.01,2013-02-08 19:33:00,
2013-02-08 14:34:00,35.6,22.7,29.26,North,0,2.2,2.2,59,0.00,,,0.08,VWS V14.01,2013-02-08 19:34:00,
2013-02-08 14:35:00,35.6,22.3,29.26,North,0,2.2,2.2,58,0.00,,,0.08,VWS V14.01,2013-02-08 19:35:00,
2013-02-08 14:36:00,35.8,13.8,29.00,NW,315,6.3,7.2,40,0.00,,---,0.09,VWS V14.01,2013-02-08 19:36:00,
2013-02-08 14:37:00,35.8,22.9,29.26,NW,315,2.5,2.5,59,0.00,,,0.08,VWS V14.01,2013-02-08 19:37:00,
2013-02-08 14:38:00,35.8,23.3,29.26,NW,315,2.5,2.5,60,0.00,,,0.08,VWS V14.01,2013-02-08 19:38:00,
2013-02-08 14:39:00,35.8,23.3,29.26,NW,315,2.5,2.5,60,0.00,,,0.08,VWS V14.01,2013-02-08 19:39:00,
2013-02-08 14:40:00,35.8,22.9,29.26,NW,315,2.5,2.5,59,0.00,,,0.08,VWS V14.01,2013-02-08 19:40:00,
2013-02-08 14:41:00,36.0,14.0,29.00,NW,315,4.9,8.7,40,0.00,,---,0.09,VWS V14.01,2013-02-08 19:41:00,
2013-02-08 14:42:00,35.8,22.5,29.26,NW,315,2.5,2.5,58,0.00,,,0.08,VWS V14.01,2013-02-08 19:42:00,
2013-02-08 14:43:00,35.8,22.5,29.26,NW,315,2.5,2.5,58,0.00,,,0.08,VWS V14.01,2013-02-08 19:43:00,
2013-02-08 14:44:00,35.8,22.5,29.26,NW,315,2.5,2.5,58,0.00,,,0.08,VWS V14.01,2013-02-08 19:44:00,
2013-02-08 14:45:00,35.8,22.5,29.32,NW,315,2.5,2.5,58,0.00,,,0.08,VWS V14.01,2013-02-08 19:45:00,
2013-02-08 14:46:00,36.0,14.0,29.00,West,270,7.6,7.6,40,0.00,,---,0.09,VWS V14.01,2013-02-08 19:46:00,
2013-02-08 14:47:00,35.8,22.9,29.32,NW,315,2.5,2.5,59,0.00,,,0.08,VWS V14.01,2013-02-08 19:47:00,
2013-02-08 14:48:00,35.6,22.3,29.32,NW,315,2.5,2.5,58,0.00,,,0.08,VWS V14.01,2013-02-08 19:48:00,
2013-02-08 14:49:00,35.6,22.3,29.32,NW,315,2.5,2.5,58,0.00,,,0.08,VWS V14.01,2013-02-08 19:49:00,
2013-02-08 14:50:00,35.6,22.3,29.32,NW,315,2.5,2.5,58,0.00,,,0.08,VWS V14.01,2013-02-08 19:50:00,
2013-02-08 14:51:00,36.0,14.0,29.00,NW,315,5.8,6.3,40,0.00,,---,0.09,VWS V14.01,2013-02-08 19:51:00,
2013-02-08 14:56:00,35.8,13.8,29.00,WNW,292,7.2,8.3,40,0.00,,---,0.09,VWS V14.01,2013-02-08 19:56:00,
2013-02-08 15:01:00,35.6,13.7,29.00,NW,315,3.6,4.0,40,0.00,,---,0.09,VWS V14.01,2013-02-08 20:01:00,
2013-02-08 15:06:00,35.8,13.8,29.00,NW,315,4.9,4.9,40,0.00,,---,0.09,VWS V14.01,2013-02-08 20:06:00,
2013-02-08 15:11:00,35.8,13.8,29.00,NW,315,3.6,5.4,40,0.00,,---,0.09,VWS V14.01,2013-02-08 20:11:00,
2013-02-08 15:16:00,35.8,13.8,29.00,NW,315,2.7,3.1,40,0.00,,---,0.09,VWS V14.01,2013-02-08 20:16:00,
2013-02-08 15:21:00,35.8,13.8,29.00,NW,315,5.4,8.3,40,0.00,,---,0.09,VWS V14.01,2013-02-08 20:21:00,
2013-02-08 15:26:00,35.8,13.8,29.00,WNW,292,2.7,3.6,40,0.00,,---,0.09,VWS V14.01,2013-02-08 20:26:00,
2013-02-08 15:31:00,35.8,13.8,29.00,NW,315,3.1,5.8,40,0.00,,---,0.09,VWS V14.01,2013-02-08 20:31:00,
2013-02-08 15:36:00,36.0,14.0,29.00,WNW,292,3.6,3.6,40,0.00,,---,0.09,VWS V14.01,2013-02-08 20:36:00,
2013-02-08 15:41:00,36.0,14.0,29.00,West,270,3.6,3.6,40,0.00,,---,0.09,VWS V14.01,2013-02-08 20:41:00,
2013-02-08 15:46:00,36.0,14.0,29.03,West,270,2.7,3.1,40,0.00,,---,0.09,VWS V14.01,2013-02-08 20:46:00,
2013-02-08 15:51:00,36.0,14.0,29.03,West,270,7.2,7.2,40,0.00,,---,0.09,VWS V14.01,2013-02-08 20:51:00,
2013-02-08 15:56:00,36.0,14.0,29.03,West,270,5.8,5.8,40,0.00,,---,0.09,VWS V14.01,2013-02-08 20:56:00,
2013-02-08 16:01:00,36.0,14.0,29.03,NW,315,5.8,6.7,40,0.00,,---,0.09,VWS V14.01,2013-02-08 21:01:00,
2013-02-08 16:06:00,35.8,13.8,29.03,NW,315,2.7,7.2,40,0.00,,---,0.09,VWS V14.01,2013-02-08 21:06:00,
2013-02-08 16:11:00,35.8,13.3,29.03,NW,315,6.3,10.1,39,0.00,,---,0.09,VWS V14.01,2013-02-08 21:11:00,
2013-02-08 16:16:00,36.0,13.4,29.03,NW,315,4.0,4.0,39,0.00,,---,0.09,VWS V14.01,2013-02-08 21:16:00,
2013-02-08 16:21:00,36.0,13.4,29.03,NNW,338,4.9,6.3,39,0.00,,---,0.09,VWS V14.01,2013-02-08 21:21:00,
2013-02-08 16:26:00,36.0,12.8,29.03,WNW,292,6.3,6.3,38,0.00,,---,0.09,VWS V14.01,2013-02-08 21:26:00,
2013-02-08 16:31:00,36.0,12.8,29.03,WNW,292,3.6,4.0,38,0.00,,---,0.09,VWS V14.01,2013-02-08 21:31:00,
2013-02-08 16:36:00,36.0,12.2,29.03,WNW,292,3.1,3.6,37,0.00,,---,0.09,VWS V14.01,2013-02-08 21:36:00,
2013-02-08 16:41:00,36.1,12.4,29.03,WNW,292,5.8,5.8,37,0.00,,---,0.09,VWS V14.01,2013-02-08 21:41:00,
2013-02-08 16:46:00,36.1,12.4,29.03,NW,315,3.1,3.1,37,0.00,,---,0.09,VWS V14.01,2013-02-08 21:46:00,
2013-02-08 16:51:00,36.1,13.0,29.03,NW,315,5.4,5.4,38,0.00,,---,0.09,VWS V14.01,2013-02-08 21:51:00,
2013-02-08 16:56:00,36.0,13.4,29.03,NW,315,5.8,5.8,39,0.00,,---,0.09,VWS V14.01,2013-02-08 21:56:00,
2013-02-08 17:01:00,36.0,13.4,29.06,WNW,292,4.9,4.9,39,0.00,,---,0.09,VWS V14.01,2013-02-08 22:01:00,
2013-02-08 17:06:00,36.0,13.4,29.06,NW,315,4.9,5.8,39,0.00,,---,0.09,VWS V14.01,2013-02-08 22:06:00,
2013-02-08 17:11:00,36.0,12.8,29.06,WNW,292,4.9,5.8,38,0.00,,---,0.09,VWS V14.01,2013-02-08 22:11:00,
2013-02-08 17:16:00,36.0,12.8,29.06,NW,315,2.2,3.6,38,0.00,,---,0.09,VWS V14.01,2013-02-08 22:16:00,
2013-02-08 17:21:00,36.0,12.8,29.06,NW,315,0.0,0.0,38,0.00,,---,0.09,VWS V14.01,2013-02-08 22:21:00,
2013-02-08 17:26:00,36.0,12.8,29.06,NW,315,2.7,4.0,38,0.00,,---,0.09,VWS V14.01,2013-02-08 22:26:00,
2013-02-08 17:31:00,35.8,12.1,29.06,NW,315,4.0,4.0,37,0.00,,---,0.09,VWS V14.01,2013-02-08 22:31:00,
2013-02-08 17:36:00,36.0,12.8,29.06,NW,315,2.7,3.1,38,0.00,,---,0.09,VWS V14.01,2013-02-08 22:36:00,
2013-02-08 17:41:00,36.0,12.2,29.06,NW,315,4.0,4.0,37,0.00,,---,0.09,VWS V14.01,2013-02-08 22:41:00,
2013-02-08 17:46:00,35.8,12.1,29.09,NW,315,2.2,4.9,37,0.00,,---,0.09,VWS V14.01,2013-02-08 22:46:00,
2013-02-08 17:51:00,35.8,11.4,29.09,NW,315,2.7,3.6,36,0.00,,---,0.09,VWS V14.01,2013-02-08 22:51:00,
2013-02-08 17:56:00,35.8,12.1,29.09,NW,315,3.1,3.1,37,0.00,,---,0.09,VWS V14.01,2013-02-08 22:56:00,
2013-02-08 18:01:00,35.8,12.7,29.09,NW,315,2.7,4.9,38,0.00,,---,0.09,VWS V14.01,2013-02-08 23:01:00,
2013-02-08 18:06:00,35.8,13.3,29.09,NW,315,3.1,4.9,39,0.00,,---,0.09,VWS V14.01,2013-02-08 23:06:00,
2013-02-08 18:11:00,35.8,13.3,29.09,NW,315,4.0,4.0,39,0.00,,---,0.09,VWS V14.01,2013-02-08 23:11:00,
2013-02-08 18:16:00,35.6,13.7,29.09,NW,315,3.6,3.6,40,0.00,,---,0.09,VWS V14.01,2013-02-08 23:16:00,
2013-02-08 18:21:00,35.6,13.7,29.09,NW,315,4.0,4.0,40,0.00,,---,0.09,VWS V14.01,2013-02-08 23:21:00,
2013-02-08 18:26:00,35.6,13.7,29.09,NW,315,0.0,2.7,40,0.00,,---,0.09,VWS V14.01,2013-02-08 23:26:00,
2013-02-08 18:31:00,35.4,13.5,29.09,NW,315,0.0,3.6,40,0.00,,---,0.09,VWS V14.01,2013-02-08 23:31:00,
2013-02-08 18:36:00,35.4,13.5,29.09,NW,315,4.0,4.0,40,0.00,,---,0.09,VWS V14.01,2013-02-08 23:36:00,
2013-02-08 18:41:00,35.4,13.5,29.09,NW,315,3.1,3.1,40,0.00,,---,0.09,VWS V14.01,2013-02-08 23:41:00,
2013-02-08 18:46:00,35.4,13.5,29.09,NW,315,2.2,2.2,40,0.00,,---,0.09,VWS V14.01,2013-02-08 23:46:00,
2013-02-08 18:51:00,35.4,14.1,29.09,NW,315,3.6,3.6,41,0.00,,---,0.09,VWS V14.01,2013-02-08 23:51:00,
2013-02-08 18:56:00,35.4,14.1,29.09,NW,315,0.0,0.0,41,0.00,,---,0.09,VWS V14.01,2013-02-08 23:56:00,
2013-02-08 19:01:00,35.4,14.1,29.09,NW,315,3.1,3.1,41,0.00,,---,0.09,VWS V14.01,2013-02-09 00:01:00,
2013-02-08 19:06:00,35.4,14.1,29.09,NW,315,0.0,2.2,41,0.00,,---,0.09,VWS V14.01,2013-02-09 00:06:00,
2013-02-08 19:11:00,35.2,13.9,29.09,NW,315,3.6,4.0,41,0.00,,---,0.09,VWS V14.01,2013-02-09 00:11:00,
2013-02-08 19:16:00,35.2,13.9,29.09,NW,315,0.0,0.0,41,0.00,,---,0.09,VWS V14.01,2013-02-09 00:16:00,
2013-02-08 19:21:00,35.2,13.9,29.09,NW,315,4.0,4.0,41,0.00,,---,0.09,VWS V14.01,2013-02-09 00:21:00,
2013-02-08 19:26:00,35.2,13.9,29.09,NW,315,0.0,0.0,41,0.00,,---,0.09,VWS V14.01,2013-02-09 00:26:00,
2013-02-08 19:31:00,35.2,13.9,29.12,NW,315,2.2,2.7,41,0.00,,---,0.09,VWS V14.01,2013-02-09 00:31:00,
2013-02-08 19:36:00,35.2,13.9,29.12,NW,315,0.0,0.0,41,0.00,,---,0.09,VWS V14.01,2013-02-09 00:36:00,
2013-02-08 19:41:00,35.2,13.9,29.12,NW,315,3.1,3.6,41,0.00,,---,0.09,VWS V14.01,2013-02-09 00:41:00,
2013-02-08 19:46:00,35.2,13.9,29.12,NW,315,0.0,3.1,41,0.00,,---,0.09,VWS V14.01,2013-02-09 00:46:00,
2013-02-08 19:51:00,35.2,13.9,29.12,NW,315,3.1,3.6,41,0.00,,---,0.09,VWS V14.01,2013-02-09 00:51:00,
2013-02-08 19:56:00,35.2,13.9,29.12,NW,315,3.6,3.6,41,0.00,,---,0.09,VWS V14.01,2013-02-09 00:56:00,
2013-02-08 20:01:00,35.1,13.8,29.12,NW,315,3.1,3.1,41,0.00,,---,0.09,VWS V14.01,2013-02-09 01:01:00,
2013-02-08 20:06:00,35.1,13.8,29.12,NW,315,2.7,3.1,41,0.00,,---,0.09,VWS V14.01,2013-02-09 01:06:00,
2013-02-08 20:11:00,35.1,13.8,29.12,NW,315,3.1,3.1,41,0.00,,---,0.09,VWS V14.01,2013-02-09 01:11:00,
2013-02-08 20:16:00,35.1,13.8,29.12,NW,315,3.1,4.9,41,0.00,,---,0.09,VWS V14.01,2013-02-09 01:16:00,
2013-02-08 20:21:00,35.1,13.8,29.12,NW,315,2.2,4.0,41,0.00,,---,0.09,VWS V14.01,2013-02-09 01:21:00,
2013-02-08 20:26:00,35.1,13.2,29.12,NW,315,3.1,3.1,40,0.00,,---,0.09,VWS V14.01,2013-02-09 01:26:00,
2013-02-08 20:31:00,35.1,13.8,29.12,NW,315,2.2,2.2,41,0.00,,---,0.09,VWS V14.01,2013-02-09 01:31:00,
2013-02-08 20:36:00,35.1,13.8,29.12,NW,315,2.2,2.2,41,0.00,,---,0.09,VWS V14.01,2013-02-09 01:36:00,
2013-02-08 20:41:00,35.1,13.8,29.12,NW,315,2.2,2.2,41,0.00,,---,0.09,VWS V14.01,2013-02-09 01:41:00,
2013-02-08 20:46:00,35.1,13.8,29.12,NW,315,2.7,3.1,41,0.00,,---,0.09,VWS V14.01,2013-02-09 01:46:00,
2013-02-08 20:51:00,35.1,13.8,29.12,NW,315,2.7,2.7,41,0.00,,---,0.09,VWS V14.01,2013-02-09 01:51:00,
2013-02-08 20:56:00,35.1,13.8,29.12,NW,315,0.0,2.7,41,0.00,,---,0.09,VWS V14.01,2013-02-09 01:56:00,
2013-02-08 21:01:00,35.1,13.8,29.14,NW,315,0.0,0.0,41,0.00,,---,0.09,VWS V14.01,2013-02-09 02:01:00,
2013-02-08 21:06:00,35.1,13.8,29.14,NW,315,3.1,3.1,41,0.00,,---,0.09,VWS V14.01,2013-02-09 02:06:00,
2013-02-08 21:11:00,34.9,13.0,29.14,NW,315,2.7,2.7,40,0.00,,---,0.09,VWS V14.01,2013-02-09 02:11:00,
2013-02-08 21:16:00,34.9,11.9,29.14,NW,315,2.7,2.7,38,0.00,,---,0.09,VWS V14.01,2013-02-09 02:16:00,
2013-02-08 21:21:00,34.7,10.5,29.14,NW,315,0.0,0.0,36,0.00,,---,0.09,VWS V14.01,2013-02-09 02:21:00,
2013-02-08 21:26:00,34.5,9.7,29.14,NW,315,0.0,2.2,35,0.00,,---,0.09,VWS V14.01,2013-02-09 02:26:00,
2013-02-08 21:31:00,34.3,8.9,29.14,NW,315,0.0,0.0,34,0.00,,---,0.09,VWS V14.01,2013-02-09 02:31:00,
2013-02-08 21:36:00,34.2,8.7,29.14,NW,315,0.0,0.0,34,0.00,,---,0.09,VWS V14.01,2013-02-09 02:36:00,
2013-02-08 21:41:00,33.8,9.1,29.14,NW,315,0.0,0.0,35,0.00,,---,0.09,VWS V14.01,2013-02-09 02:41:00,
2013-02-08 21:46:00,33.6,8.9,29.14,NW,315,0.0,0.0,35,0.00,,---,0.09,VWS V14.01,2013-02-09 02:46:00,
2013-02-08 21:51:00,33.6,8.3,29.14,NW,315,0.0,3.6,34,0.00,,---,0.09,VWS V14.01,2013-02-09 02:51:00,
2013-02-08 21:56:00,33.6,8.3,29.14,NW,315,2.2,3.1,34,0.00,,---,0.09,VWS V14.01,2013-02-09 02:56:00,
2013-02-08 22:01:00,33.6,8.9,29.14,NW,315,0.0,0.0,35,0.00,,---,0.09,VWS V14.01,2013-02-09 03:01:00,
2013-02-08 22:06:00,33.6,8.3,29.14,NW,315,0.0,0.0,34,0.00,,---,0.09,VWS V14.01,2013-02-09 03:06:00,
2013-02-08 22:11:00,33.6,8.3,29.14,NW,315,0.0,0.0,34,0.00,,---,0.09,VWS V14.01,2013-02-09 03:11:00,
2013-02-08 22:16:00,33.6,8.3,29.14,NW,315,0.0,0.0,34,0.00,,---,0.09,VWS V14.01,2013-02-09 03:16:00,
2013-02-08 22:21:00,33.6,8.3,29.14,NW,315,2.2,2.2,34,0.00,,---,0.09,VWS V14.01,2013-02-09 03:21:00,
2013-02-08 22:26:00,33.4,8.1,29.14,NW,315,2.2,2.2,34,0.00,,---,0.09,VWS V14.01,2013-02-09 03:26:00,
2013-02-08 22:31:00,33.4,8.1,29.14,NW,315,2.2,2.2,34,0.00,,---,0.09,VWS V14.01,2013-02-09 03:31:00,
2013-02-08 22:36:00,33.3,7.9,29.14,NW,315,0.0,0.0,34,0.00,,---,0.09,VWS V14.01,2013-02-09 03:36:00,
2013-02-08 22:41:00,33.3,7.9,29.14,NW,315,0.0,0.0,34,0.00,,---,0.09,VWS V14.01,2013-02-09 03:41:00,
2013-02-08 22:46:00,33.3,7.9,29.14,NW,315,0.0,2.7,34,0.00,,---,0.09,VWS V14.01,2013-02-09 03:46:00,
2013-02-08 22:51:00,33.1,7.8,29.14,NW,315,2.2,2.7,34,0.00,,---,0.09,VWS V14.01,2013-02-09 03:51:00,
2013-02-08 22:56:00,33.1,7.1,29.14,NW,315,3.1,3.1,33,0.00,,---,0.09,VWS V14.01,2013-02-09 03:56:00,
2013-02-08 23:01:00,33.3,6.6,29.14,NW,315,2.2,3.1,32,0.00,,---,0.09,VWS V14.01,2013-02-09 04:01:00,
2013-02-08 23:06:00,33.3,6.6,29.14,NW,315,2.2,3.1,32,0.00,,---,0.09,VWS V14.01,2013-02-09 04:06:00,
2013-02-08 23:11:00,33.1,6.4,29.14,NW,315,0.0,2.7,32,0.00,,---,0.09,VWS V14.01,2013-02-09 04:11:00,
2013-02-08 23:16:00,33.3,6.6,29.14,NW,315,2.7,3.6,32,0.00,,---,0.09,VWS V14.01,2013-02-09 04:16:00,
2013-02-08 23:21:00,33.1,6.4,29.14,NW,315,2.2,2.2,32,0.00,,---,0.09,VWS V14.01,2013-02-09 04:21:00,
2013-02-08 23:26:00,33.1,7.1,29.14,NW,315,0.0,2.2,33,0.00,,---,0.09,VWS V14.01,2013-02-09 04:26:00,
2013-02-08 23:31:00,33.1,6.4,29.14,NW,315,0.0,0.0,32,0.00,,---,0.09,VWS V14.01,2013-02-09 04:31:00,
2013-02-08 23:36:00,33.1,7.1,29.14,NW,315,0.0,0.0,33,0.00,,---,0.09,VWS V14.01,2013-02-09 04:36:00,
2013-02-08 23:41:00,32.9,7.0,29.14,NW,315,0.0,2.2,33,0.00,,---,0.09,VWS V14.01,2013-02-09 04:41:00,
2013-02-08 23:46:00,33.1,7.8,29.14,NW,315,0.0,0.0,34,0.00,,---,0.09,VWS V14.01,2013-02-09 04:46:00,
2013-02-08 23:51:00,32.9,7.6,29.14,NW,315,2.2,2.2,34,0.00,,---,0.09,VWS V14.01,2013-02-09 04:51:00,
2013-02-08 23:56:00,32.9,7.0,29.14,NW,315,0.0,0.0,33,0.00,,---,0.09,VWS V14.01,2013-02-09 04:56:00,